<?xml version="1.0" encoding="UTF-8" standalone="no" ?>
<gpx xmlns="http://www.topografix.com/GPX/1/1" xmlns:xsi="http://www.w3.org/2001/XMLSchema-instance" xsi:schemaLocation="http://www.topografix.com/GPX/1/1 http://www.topografix.com/GPX/1/1/gpx.xsd" version="1.1" creator="VisuGPX - https://www.visugpx.com">
  <metadata>
    <name>Peyrus Chateaudouble carrière de tuf 270222</name>
    <desc><![CDATA[Réalisé le 270222; Pour trouver la carrière suivre scrupuleusement la trace.]]></desc>
  </metadata>
  <wpt lat="44.89735" lon="5.14622">
    <ele>728.5</ele>
    <name><![CDATA[Carrière de tuf]]></name>
  </wpt>
  <trk>
    <name><![CDATA[2022-02-27 09:19]]></name>
    <extensions>
      <line xmlns="http://www.topografix.com/GPX/gpx_style/0/2">
        <color>0000FF</color>
        <opacity>0.59</opacity>
        <width>6</width>
      </line>
    </extensions>
    <trkseg>
      <trkpt lat="44.91951" lon="5.10697">
        <ele>392.33</ele>
        <time>2022-02-27T08:19:54.000Z</time>
      </trkpt>
      <trkpt lat="44.91952" lon="5.10721">
        <ele>393.24</ele>
        <time>2022-02-27T08:20:17.630Z</time>
      </trkpt>
      <trkpt lat="44.91942" lon="5.10737">
        <ele>393.82</ele>
        <time>2022-02-27T08:20:26.707Z</time>
      </trkpt>
      <trkpt lat="44.91925" lon="5.10734">
        <ele>393.58</ele>
        <time>2022-02-27T08:21:14.745Z</time>
      </trkpt>
      <trkpt lat="44.91906" lon="5.10715">
        <ele>392.46</ele>
        <time>2022-02-27T08:21:33.655Z</time>
      </trkpt>
      <trkpt lat="44.91899" lon="5.10706">
        <ele>391.91</ele>
        <time>2022-02-27T08:21:43.660Z</time>
      </trkpt>
      <trkpt lat="44.91881" lon="5.10687">
        <ele>390.38</ele>
        <time>2022-02-27T08:22:21.649Z</time>
      </trkpt>
      <trkpt lat="44.91875" lon="5.10685">
        <ele>390</ele>
        <time>2022-02-27T08:22:57.864Z</time>
      </trkpt>
      <trkpt lat="44.91879" lon="5.10703">
        <ele>390.73</ele>
        <time>2022-02-27T08:23:06.967Z</time>
      </trkpt>
      <trkpt lat="44.91884" lon="5.10731">
        <ele>391.87</ele>
        <time>2022-02-27T08:23:37.568Z</time>
      </trkpt>
      <trkpt lat="44.91884" lon="5.10762">
        <ele>393.31</ele>
        <time>2022-02-27T08:23:56.068Z</time>
      </trkpt>
      <trkpt lat="44.91882" lon="5.10775">
        <ele>393.94</ele>
        <time>2022-02-27T08:24:06.067Z</time>
      </trkpt>
      <trkpt lat="44.91873" lon="5.10802">
        <ele>395.43</ele>
        <time>2022-02-27T08:24:24.743Z</time>
      </trkpt>
      <trkpt lat="44.91864" lon="5.10828">
        <ele>397.24</ele>
        <time>2022-02-27T08:24:44.073Z</time>
      </trkpt>
      <trkpt lat="44.91861" lon="5.10841">
        <ele>398.25</ele>
        <time>2022-02-27T08:24:56.000Z</time>
      </trkpt>
      <trkpt lat="44.91855" lon="5.10867">
        <ele>400.51</ele>
        <time>2022-02-27T08:25:14.768Z</time>
      </trkpt>
      <trkpt lat="44.91851" lon="5.10894">
        <ele>403.11</ele>
        <time>2022-02-27T08:25:33.824Z</time>
      </trkpt>
      <trkpt lat="44.91848" lon="5.10906">
        <ele>404.47</ele>
        <time>2022-02-27T08:25:43.685Z</time>
      </trkpt>
      <trkpt lat="44.91843" lon="5.10931">
        <ele>407.58</ele>
        <time>2022-02-27T08:26:04.928Z</time>
      </trkpt>
      <trkpt lat="44.91841" lon="5.10957">
        <ele>411.01</ele>
        <time>2022-02-27T08:26:30.187Z</time>
      </trkpt>
      <trkpt lat="44.91838" lon="5.1097">
        <ele>412.81</ele>
        <time>2022-02-27T08:26:49.967Z</time>
      </trkpt>
      <trkpt lat="44.91833" lon="5.10995">
        <ele>417.13</ele>
        <time>2022-02-27T08:27:13.648Z</time>
      </trkpt>
      <trkpt lat="44.91826" lon="5.11019">
        <ele>422.23</ele>
        <time>2022-02-27T08:27:37.532Z</time>
      </trkpt>
      <trkpt lat="44.91824" lon="5.11032">
        <ele>425.18</ele>
        <time>2022-02-27T08:27:50.129Z</time>
      </trkpt>
      <trkpt lat="44.91811" lon="5.11041">
        <ele>427.97</ele>
        <time>2022-02-27T08:28:34.862Z</time>
      </trkpt>
      <trkpt lat="44.9179" lon="5.11035">
        <ele>427.96</ele>
        <time>2022-02-27T08:28:53.891Z</time>
      </trkpt>
      <trkpt lat="44.9178" lon="5.11035">
        <ele>428.44</ele>
        <time>2022-02-27T08:29:04.167Z</time>
      </trkpt>
      <trkpt lat="44.9176" lon="5.11037">
        <ele>429.75</ele>
        <time>2022-02-27T08:29:23.365Z</time>
      </trkpt>
      <trkpt lat="44.91739" lon="5.11034">
        <ele>429.59</ele>
        <time>2022-02-27T08:29:41.487Z</time>
      </trkpt>
      <trkpt lat="44.91727" lon="5.11036">
        <ele>430.27</ele>
        <time>2022-02-27T08:29:50.999Z</time>
      </trkpt>
      <trkpt lat="44.91706" lon="5.11029">
        <ele>428.54</ele>
        <time>2022-02-27T08:30:10.404Z</time>
      </trkpt>
      <trkpt lat="44.91686" lon="5.11029">
        <ele>427.91</ele>
        <time>2022-02-27T08:30:30.832Z</time>
      </trkpt>
      <trkpt lat="44.91676" lon="5.11028">
        <ele>427.55</ele>
        <time>2022-02-27T08:30:40.071Z</time>
      </trkpt>
      <trkpt lat="44.91654" lon="5.11031">
        <ele>427.43</ele>
        <time>2022-02-27T08:30:58.810Z</time>
      </trkpt>
      <trkpt lat="44.91628" lon="5.11026">
        <ele>424.51</ele>
        <time>2022-02-27T08:31:17.645Z</time>
      </trkpt>
      <trkpt lat="44.91617" lon="5.11026">
        <ele>423.87</ele>
        <time>2022-02-27T08:31:26.888Z</time>
      </trkpt>
      <trkpt lat="44.91593" lon="5.11027">
        <ele>422.38</ele>
        <time>2022-02-27T08:31:45.448Z</time>
      </trkpt>
      <trkpt lat="44.91572" lon="5.1103">
        <ele>422.12</ele>
        <time>2022-02-27T08:32:10.283Z</time>
      </trkpt>
      <trkpt lat="44.9156" lon="5.11033">
        <ele>422.49</ele>
        <time>2022-02-27T08:32:19.771Z</time>
      </trkpt>
      <trkpt lat="44.91538" lon="5.11037">
        <ele>422.65</ele>
        <time>2022-02-27T08:32:39.688Z</time>
      </trkpt>
      <trkpt lat="44.91518" lon="5.11043">
        <ele>422.9</ele>
        <time>2022-02-27T08:32:59.547Z</time>
      </trkpt>
      <trkpt lat="44.91509" lon="5.11039">
        <ele>421.26</ele>
        <time>2022-02-27T08:33:09.999Z</time>
      </trkpt>
      <trkpt lat="44.91483" lon="5.11042">
        <ele>417.91</ele>
        <time>2022-02-27T08:33:37.921Z</time>
      </trkpt>
      <trkpt lat="44.91461" lon="5.11052">
        <ele>414.72</ele>
        <time>2022-02-27T08:33:56.732Z</time>
      </trkpt>
      <trkpt lat="44.91452" lon="5.11053">
        <ele>412.46</ele>
        <time>2022-02-27T08:34:10.491Z</time>
      </trkpt>
      <trkpt lat="44.91434" lon="5.11064">
        <ele>409.98</ele>
        <time>2022-02-27T08:34:28.987Z</time>
      </trkpt>
      <trkpt lat="44.91418" lon="5.11077">
        <ele>408.28</ele>
        <time>2022-02-27T08:34:48.067Z</time>
      </trkpt>
      <trkpt lat="44.91414" lon="5.11089">
        <ele>409.3</ele>
        <time>2022-02-27T08:34:59.999Z</time>
      </trkpt>
      <trkpt lat="44.91392" lon="5.11087">
        <ele>405</ele>
        <time>2022-02-27T08:35:41.209Z</time>
      </trkpt>
      <trkpt lat="44.91375" lon="5.11077">
        <ele>401.27</ele>
        <time>2022-02-27T08:36:04.829Z</time>
      </trkpt>
      <trkpt lat="44.9137" lon="5.11066">
        <ele>399.43</ele>
        <time>2022-02-27T08:36:17.744Z</time>
      </trkpt>
      <trkpt lat="44.91353" lon="5.11052">
        <ele>396.76</ele>
        <time>2022-02-27T08:36:44.884Z</time>
      </trkpt>
      <trkpt lat="44.91339" lon="5.11031">
        <ele>394.68</ele>
        <time>2022-02-27T08:37:03.650Z</time>
      </trkpt>
      <trkpt lat="44.91331" lon="5.11026">
        <ele>393.93</ele>
        <time>2022-02-27T08:37:13.282Z</time>
      </trkpt>
      <trkpt lat="44.91316" lon="5.11007">
        <ele>392.26</ele>
        <time>2022-02-27T08:37:33.932Z</time>
      </trkpt>
      <trkpt lat="44.913" lon="5.10989">
        <ele>390.69</ele>
        <time>2022-02-27T08:37:52.873Z</time>
      </trkpt>
      <trkpt lat="44.91294" lon="5.10976">
        <ele>390.29</ele>
        <time>2022-02-27T08:38:02.168Z</time>
      </trkpt>
      <trkpt lat="44.91281" lon="5.10953">
        <ele>390.64</ele>
        <time>2022-02-27T08:38:20.544Z</time>
      </trkpt>
      <trkpt lat="44.91266" lon="5.10934">
        <ele>392.4</ele>
        <time>2022-02-27T08:38:38.822Z</time>
      </trkpt>
      <trkpt lat="44.91263" lon="5.10918">
        <ele>393.65</ele>
        <time>2022-02-27T08:38:47.910Z</time>
      </trkpt>
      <trkpt lat="44.91268" lon="5.10892">
        <ele>394.52</ele>
        <time>2022-02-27T08:39:06.769Z</time>
      </trkpt>
      <trkpt lat="44.91283" lon="5.10874">
        <ele>393.69</ele>
        <time>2022-02-27T08:39:26.048Z</time>
      </trkpt>
      <trkpt lat="44.91294" lon="5.10866">
        <ele>392.85</ele>
        <time>2022-02-27T08:39:35.509Z</time>
      </trkpt>
      <trkpt lat="44.91309" lon="5.1085">
        <ele>392.09</ele>
        <time>2022-02-27T08:39:53.991Z</time>
      </trkpt>
      <trkpt lat="44.91326" lon="5.10829">
        <ele>390.89</ele>
        <time>2022-02-27T08:40:12.443Z</time>
      </trkpt>
      <trkpt lat="44.91332" lon="5.10815">
        <ele>390.48</ele>
        <time>2022-02-27T08:40:21.673Z</time>
      </trkpt>
      <trkpt lat="44.91331" lon="5.10784">
        <ele>391.18</ele>
        <time>2022-02-27T08:40:40.011Z</time>
      </trkpt>
      <trkpt lat="44.9133" lon="5.10755">
        <ele>392.03</ele>
        <time>2022-02-27T08:41:01.008Z</time>
      </trkpt>
      <trkpt lat="44.91328" lon="5.10743">
        <ele>392.69</ele>
        <time>2022-02-27T08:41:15.769Z</time>
      </trkpt>
      <trkpt lat="44.91323" lon="5.10699">
        <ele>393.19</ele>
        <time>2022-02-27T08:41:34.024Z</time>
      </trkpt>
      <trkpt lat="44.91324" lon="5.10664">
        <ele>392.13</ele>
        <time>2022-02-27T08:41:53.687Z</time>
      </trkpt>
      <trkpt lat="44.91321" lon="5.10651">
        <ele>392.4</ele>
        <time>2022-02-27T08:42:04.915Z</time>
      </trkpt>
      <trkpt lat="44.9132" lon="5.10614">
        <ele>392.12</ele>
        <time>2022-02-27T08:42:23.307Z</time>
      </trkpt>
      <trkpt lat="44.91317" lon="5.10588">
        <ele>391.95</ele>
        <time>2022-02-27T08:42:42.811Z</time>
      </trkpt>
      <trkpt lat="44.91319" lon="5.10573">
        <ele>390.92</ele>
        <time>2022-02-27T08:42:52.102Z</time>
      </trkpt>
      <trkpt lat="44.91309" lon="5.10543">
        <ele>390.81</ele>
        <time>2022-02-27T08:43:10.904Z</time>
      </trkpt>
      <trkpt lat="44.91298" lon="5.1052">
        <ele>391.18</ele>
        <time>2022-02-27T08:43:40.972Z</time>
      </trkpt>
      <trkpt lat="44.91292" lon="5.10509">
        <ele>391.32</ele>
        <time>2022-02-27T08:43:51.788Z</time>
      </trkpt>
      <trkpt lat="44.91278" lon="5.10493">
        <ele>392.58</ele>
        <time>2022-02-27T08:44:11.347Z</time>
      </trkpt>
      <trkpt lat="44.91262" lon="5.1047">
        <ele>393.52</ele>
        <time>2022-02-27T08:44:30.846Z</time>
      </trkpt>
      <trkpt lat="44.91256" lon="5.10455">
        <ele>393.12</ele>
        <time>2022-02-27T08:44:40.165Z</time>
      </trkpt>
      <trkpt lat="44.9124" lon="5.1043">
        <ele>393.46</ele>
        <time>2022-02-27T08:44:58.869Z</time>
      </trkpt>
      <trkpt lat="44.91224" lon="5.10415">
        <ele>394.48</ele>
        <time>2022-02-27T08:45:19.447Z</time>
      </trkpt>
      <trkpt lat="44.91218" lon="5.10402">
        <ele>393.83</ele>
        <time>2022-02-27T08:45:28.804Z</time>
      </trkpt>
      <trkpt lat="44.91201" lon="5.1039">
        <ele>395.61</ele>
        <time>2022-02-27T08:45:48.642Z</time>
      </trkpt>
      <trkpt lat="44.9118" lon="5.10388">
        <ele>400.22</ele>
        <time>2022-02-27T08:46:08.573Z</time>
      </trkpt>
      <trkpt lat="44.91172" lon="5.10383">
        <ele>401.52</ele>
        <time>2022-02-27T08:46:17.851Z</time>
      </trkpt>
      <trkpt lat="44.91152" lon="5.10372">
        <ele>404.91</ele>
        <time>2022-02-27T08:46:36.727Z</time>
      </trkpt>
      <trkpt lat="44.91142" lon="5.10342">
        <ele>403.1</ele>
        <time>2022-02-27T08:46:55.000Z</time>
      </trkpt>
      <trkpt lat="44.91135" lon="5.10334">
        <ele>403.87</ele>
        <time>2022-02-27T08:47:06.100Z</time>
      </trkpt>
      <trkpt lat="44.9112" lon="5.10313">
        <ele>404.95</ele>
        <time>2022-02-27T08:47:25.811Z</time>
      </trkpt>
      <trkpt lat="44.91107" lon="5.10286">
        <ele>404.52</ele>
        <time>2022-02-27T08:47:44.870Z</time>
      </trkpt>
      <trkpt lat="44.911" lon="5.10273">
        <ele>404.39</ele>
        <time>2022-02-27T08:47:54.393Z</time>
      </trkpt>
      <trkpt lat="44.91083" lon="5.10251">
        <ele>405.26</ele>
        <time>2022-02-27T08:48:13.086Z</time>
      </trkpt>
      <trkpt lat="44.91066" lon="5.10229">
        <ele>405.06</ele>
        <time>2022-02-27T08:48:31.631Z</time>
      </trkpt>
      <trkpt lat="44.91057" lon="5.10218">
        <ele>404.68</ele>
        <time>2022-02-27T08:48:41.030Z</time>
      </trkpt>
      <trkpt lat="44.91039" lon="5.10204">
        <ele>404.19</ele>
        <time>2022-02-27T08:49:00.841Z</time>
      </trkpt>
      <trkpt lat="44.91017" lon="5.1019">
        <ele>403.53</ele>
        <time>2022-02-27T08:49:21.209Z</time>
      </trkpt>
      <trkpt lat="44.91004" lon="5.10185">
        <ele>403.62</ele>
        <time>2022-02-27T08:49:30.644Z</time>
      </trkpt>
      <trkpt lat="44.90983" lon="5.10169">
        <ele>403.71</ele>
        <time>2022-02-27T08:49:49.477Z</time>
      </trkpt>
      <trkpt lat="44.90966" lon="5.10153">
        <ele>404.33</ele>
        <time>2022-02-27T08:50:08.026Z</time>
      </trkpt>
      <trkpt lat="44.90956" lon="5.10148">
        <ele>405.4</ele>
        <time>2022-02-27T08:50:17.566Z</time>
      </trkpt>
      <trkpt lat="44.90937" lon="5.10137">
        <ele>406.84</ele>
        <time>2022-02-27T08:50:35.648Z</time>
      </trkpt>
      <trkpt lat="44.90916" lon="5.10131">
        <ele>407.96</ele>
        <time>2022-02-27T08:50:53.748Z</time>
      </trkpt>
      <trkpt lat="44.90905" lon="5.10133">
        <ele>408.57</ele>
        <time>2022-02-27T08:51:02.857Z</time>
      </trkpt>
      <trkpt lat="44.90887" lon="5.10136">
        <ele>408.65</ele>
        <time>2022-02-27T08:51:21.805Z</time>
      </trkpt>
      <trkpt lat="44.90866" lon="5.10137">
        <ele>407.79</ele>
        <time>2022-02-27T08:51:40.149Z</time>
      </trkpt>
      <trkpt lat="44.90857" lon="5.10145">
        <ele>408.02</ele>
        <time>2022-02-27T08:51:49.861Z</time>
      </trkpt>
      <trkpt lat="44.90836" lon="5.10159">
        <ele>409.03</ele>
        <time>2022-02-27T08:52:08.954Z</time>
      </trkpt>
      <trkpt lat="44.90821" lon="5.10158">
        <ele>411.3</ele>
        <time>2022-02-27T08:52:59.868Z</time>
      </trkpt>
      <trkpt lat="44.90812" lon="5.10158">
        <ele>411.9</ele>
        <time>2022-02-27T08:55:22.999Z</time>
      </trkpt>
      <trkpt lat="44.90809" lon="5.10155">
        <ele>411.9</ele>
      </trkpt>
      <trkpt lat="44.90794" lon="5.10152">
        <ele>413</ele>
        <time>2022-02-27T08:55:57.126Z</time>
      </trkpt>
      <trkpt lat="44.9078" lon="5.10147">
        <ele>413.7</ele>
        <time>2022-02-27T09:02:38.149Z</time>
      </trkpt>
      <trkpt lat="44.90749" lon="5.10142">
        <ele>415.4</ele>
      </trkpt>
      <trkpt lat="44.90726" lon="5.10123">
        <ele>414.6</ele>
        <time>2022-02-27T09:03:01.000Z</time>
      </trkpt>
      <trkpt lat="44.90698" lon="5.101">
        <ele>413.2</ele>
        <time>2022-02-27T09:03:27.912Z</time>
      </trkpt>
      <trkpt lat="44.90674" lon="5.10073">
        <ele>410.9</ele>
        <time>2022-02-27T09:03:37.373Z</time>
      </trkpt>
      <trkpt lat="44.90664" lon="5.10052">
        <ele>408.9</ele>
        <time>2022-02-27T09:04:47.063Z</time>
      </trkpt>
      <trkpt lat="44.90656" lon="5.1003">
        <ele>408.69</ele>
        <time>2022-02-27T09:05:35.410Z</time>
      </trkpt>
      <trkpt lat="44.90651" lon="5.10018">
        <ele>407.93</ele>
        <time>2022-02-27T09:05:52.409Z</time>
      </trkpt>
      <trkpt lat="44.90637" lon="5.09997">
        <ele>406.87</ele>
        <time>2022-02-27T09:06:12.805Z</time>
      </trkpt>
      <trkpt lat="44.90613" lon="5.09974">
        <ele>406.39</ele>
        <time>2022-02-27T09:06:32.024Z</time>
      </trkpt>
      <trkpt lat="44.90605" lon="5.09967">
        <ele>406.26</ele>
        <time>2022-02-27T09:06:43.690Z</time>
      </trkpt>
      <trkpt lat="44.90587" lon="5.09945">
        <ele>405.06</ele>
        <time>2022-02-27T09:07:01.987Z</time>
      </trkpt>
      <trkpt lat="44.90566" lon="5.0993">
        <ele>404.02</ele>
        <time>2022-02-27T09:07:20.653Z</time>
      </trkpt>
      <trkpt lat="44.90555" lon="5.09925">
        <ele>403.54</ele>
        <time>2022-02-27T09:07:29.999Z</time>
      </trkpt>
      <trkpt lat="44.90535" lon="5.09912">
        <ele>401.84</ele>
        <time>2022-02-27T09:07:49.999Z</time>
      </trkpt>
      <trkpt lat="44.90515" lon="5.09906">
        <ele>400.96</ele>
        <time>2022-02-27T09:08:26.469Z</time>
      </trkpt>
      <trkpt lat="44.90505" lon="5.09897">
        <ele>399.8</ele>
        <time>2022-02-27T09:08:35.751Z</time>
      </trkpt>
      <trkpt lat="44.90484" lon="5.09879">
        <ele>398.38</ele>
        <time>2022-02-27T09:08:54.390Z</time>
      </trkpt>
      <trkpt lat="44.90467" lon="5.09857">
        <ele>397.24</ele>
        <time>2022-02-27T09:09:13.046Z</time>
      </trkpt>
      <trkpt lat="44.90459" lon="5.09846">
        <ele>396.75</ele>
        <time>2022-02-27T09:09:22.084Z</time>
      </trkpt>
      <trkpt lat="44.9044" lon="5.0983">
        <ele>396.59</ele>
        <time>2022-02-27T09:09:40.710Z</time>
      </trkpt>
      <trkpt lat="44.90421" lon="5.09817">
        <ele>395.74</ele>
        <time>2022-02-27T09:09:59.187Z</time>
      </trkpt>
      <trkpt lat="44.90412" lon="5.09809">
        <ele>394.68</ele>
        <time>2022-02-27T09:10:08.498Z</time>
      </trkpt>
      <trkpt lat="44.90422" lon="5.09784">
        <ele>391.22</ele>
        <time>2022-02-27T09:10:46.173Z</time>
      </trkpt>
      <trkpt lat="44.90442" lon="5.09767">
        <ele>389.05</ele>
        <time>2022-02-27T09:11:11.153Z</time>
      </trkpt>
      <trkpt lat="44.90451" lon="5.09767">
        <ele>388.9</ele>
        <time>2022-02-27T09:11:24.749Z</time>
      </trkpt>
      <trkpt lat="44.90461" lon="5.09739">
        <ele>386.61</ele>
        <time>2022-02-27T09:11:43.999Z</time>
      </trkpt>
      <trkpt lat="44.90446" lon="5.09723">
        <ele>385.24</ele>
        <time>2022-02-27T09:12:28.570Z</time>
      </trkpt>
      <trkpt lat="44.9044" lon="5.09702">
        <ele>383.76</ele>
        <time>2022-02-27T09:12:38.166Z</time>
      </trkpt>
      <trkpt lat="44.90443" lon="5.09677">
        <ele>382.37</ele>
        <time>2022-02-27T09:13:12.665Z</time>
      </trkpt>
      <trkpt lat="44.90448" lon="5.09644">
        <ele>380.71</ele>
        <time>2022-02-27T09:13:31.303Z</time>
      </trkpt>
      <trkpt lat="44.90456" lon="5.09638">
        <ele>380.89</ele>
        <time>2022-02-27T09:13:41.262Z</time>
      </trkpt>
      <trkpt lat="44.9045" lon="5.09661">
        <ele>381.7</ele>
        <time>2022-02-27T09:16:12.406Z</time>
      </trkpt>
      <trkpt lat="44.90445" lon="5.09691">
        <ele>383.26</ele>
        <time>2022-02-27T09:16:32.026Z</time>
      </trkpt>
      <trkpt lat="44.90441" lon="5.09707">
        <ele>384.12</ele>
        <time>2022-02-27T09:16:41.544Z</time>
      </trkpt>
      <trkpt lat="44.90443" lon="5.09733">
        <ele>385.91</ele>
        <time>2022-02-27T09:17:06.812Z</time>
      </trkpt>
      <trkpt lat="44.90464" lon="5.09731">
        <ele>386.08</ele>
        <time>2022-02-27T09:17:28.000Z</time>
      </trkpt>
      <trkpt lat="44.90473" lon="5.09735">
        <ele>386.37</ele>
        <time>2022-02-27T09:17:40.172Z</time>
      </trkpt>
      <trkpt lat="44.90491" lon="5.09746">
        <ele>386.92</ele>
        <time>2022-02-27T09:18:00.000Z</time>
      </trkpt>
      <trkpt lat="44.90474" lon="5.09765">
        <ele>388.3</ele>
        <time>2022-02-27T09:18:57.068Z</time>
      </trkpt>
      <trkpt lat="44.90465" lon="5.09769">
        <ele>388.77</ele>
        <time>2022-02-27T09:19:09.166Z</time>
      </trkpt>
      <trkpt lat="44.9044" lon="5.09774">
        <ele>389.8</ele>
        <time>2022-02-27T09:19:29.067Z</time>
      </trkpt>
      <trkpt lat="44.90421" lon="5.0979">
        <ele>392.09</ele>
        <time>2022-02-27T09:19:47.760Z</time>
      </trkpt>
      <trkpt lat="44.90413" lon="5.09802">
        <ele>393.73</ele>
        <time>2022-02-27T09:19:57.144Z</time>
      </trkpt>
      <trkpt lat="44.90396" lon="5.0981">
        <ele>394.59</ele>
        <time>2022-02-27T09:20:17.462Z</time>
      </trkpt>
      <trkpt lat="44.90377" lon="5.09799">
        <ele>392.07</ele>
        <time>2022-02-27T09:20:36.290Z</time>
      </trkpt>
      <trkpt lat="44.90367" lon="5.09797">
        <ele>391.19</ele>
        <time>2022-02-27T09:20:45.934Z</time>
      </trkpt>
      <trkpt lat="44.90346" lon="5.09797">
        <ele>389.79</ele>
        <time>2022-02-27T09:21:04.668Z</time>
      </trkpt>
      <trkpt lat="44.90321" lon="5.09797">
        <ele>387.11</ele>
        <time>2022-02-27T09:21:23.513Z</time>
      </trkpt>
      <trkpt lat="44.90312" lon="5.09798">
        <ele>385.85</ele>
        <time>2022-02-27T09:21:34.654Z</time>
      </trkpt>
      <trkpt lat="44.90297" lon="5.09812">
        <ele>384.3</ele>
        <time>2022-02-27T09:22:06.982Z</time>
      </trkpt>
      <trkpt lat="44.9029" lon="5.09836">
        <ele>384.72</ele>
        <time>2022-02-27T09:22:55.843Z</time>
      </trkpt>
      <trkpt lat="44.90286" lon="5.09855">
        <ele>385.45</ele>
        <time>2022-02-27T09:23:05.066Z</time>
      </trkpt>
      <trkpt lat="44.9028" lon="5.09886">
        <ele>386.45</ele>
        <time>2022-02-27T09:23:28.044Z</time>
      </trkpt>
      <trkpt lat="44.90274" lon="5.09914">
        <ele>387.78</ele>
        <time>2022-02-27T09:23:47.128Z</time>
      </trkpt>
      <trkpt lat="44.90271" lon="5.09926">
        <ele>388.59</ele>
        <time>2022-02-27T09:24:00.000Z</time>
      </trkpt>
      <trkpt lat="44.90261" lon="5.09959">
        <ele>391.69</ele>
        <time>2022-02-27T09:24:19.205Z</time>
      </trkpt>
      <trkpt lat="44.9025" lon="5.09982">
        <ele>394.02</ele>
        <time>2022-02-27T09:24:40.304Z</time>
      </trkpt>
      <trkpt lat="44.9024" lon="5.09994">
        <ele>394.52</ele>
        <time>2022-02-27T09:24:49.912Z</time>
      </trkpt>
      <trkpt lat="44.90218" lon="5.10016">
        <ele>393.88</ele>
        <time>2022-02-27T09:25:08.687Z</time>
      </trkpt>
      <trkpt lat="44.90195" lon="5.10036">
        <ele>393.43</ele>
        <time>2022-02-27T09:25:26.946Z</time>
      </trkpt>
      <trkpt lat="44.90184" lon="5.10045">
        <ele>394.5</ele>
        <time>2022-02-27T09:25:36.009Z</time>
      </trkpt>
      <trkpt lat="44.90173" lon="5.10067">
        <ele>399.54</ele>
        <time>2022-02-27T09:25:55.644Z</time>
      </trkpt>
      <trkpt lat="44.90164" lon="5.10092">
        <ele>404.61</ele>
        <time>2022-02-27T09:26:15.231Z</time>
      </trkpt>
      <trkpt lat="44.90162" lon="5.10105">
        <ele>407.06</ele>
        <time>2022-02-27T09:26:24.491Z</time>
      </trkpt>
      <trkpt lat="44.90157" lon="5.1013">
        <ele>411.15</ele>
        <time>2022-02-27T09:26:43.187Z</time>
      </trkpt>
      <trkpt lat="44.90143" lon="5.10153">
        <ele>410.2</ele>
        <time>2022-02-27T09:28:06.867Z</time>
      </trkpt>
      <trkpt lat="44.9014" lon="5.10169">
        <ele>410.51</ele>
        <time>2022-02-27T09:28:16.024Z</time>
      </trkpt>
      <trkpt lat="44.90131" lon="5.10194">
        <ele>408.93</ele>
        <time>2022-02-27T09:29:14.053Z</time>
      </trkpt>
      <trkpt lat="44.90118" lon="5.10221">
        <ele>405.79</ele>
        <time>2022-02-27T09:29:33.150Z</time>
      </trkpt>
      <trkpt lat="44.90115" lon="5.10236">
        <ele>405.94</ele>
        <time>2022-02-27T09:29:42.808Z</time>
      </trkpt>
      <trkpt lat="44.90105" lon="5.10264">
        <ele>406.39</ele>
        <time>2022-02-27T09:30:01.824Z</time>
      </trkpt>
      <trkpt lat="44.90092" lon="5.10286">
        <ele>407.69</ele>
        <time>2022-02-27T09:30:20.491Z</time>
      </trkpt>
      <trkpt lat="44.90084" lon="5.10295">
        <ele>408.23</ele>
        <time>2022-02-27T09:30:29.999Z</time>
      </trkpt>
      <trkpt lat="44.90075" lon="5.10319">
        <ele>411.84</ele>
        <time>2022-02-27T09:30:51.105Z</time>
      </trkpt>
      <trkpt lat="44.90063" lon="5.10351">
        <ele>413.94</ele>
        <time>2022-02-27T09:31:12.443Z</time>
      </trkpt>
      <trkpt lat="44.90059" lon="5.10367">
        <ele>414.3</ele>
        <time>2022-02-27T09:31:21.783Z</time>
      </trkpt>
      <trkpt lat="44.90047" lon="5.1037">
        <ele>413.89</ele>
        <time>2022-02-27T09:31:47.999Z</time>
      </trkpt>
      <trkpt lat="44.90031" lon="5.10339">
        <ele>412.58</ele>
        <time>2022-02-27T09:32:08.092Z</time>
      </trkpt>
      <trkpt lat="44.90027" lon="5.10323">
        <ele>412.04</ele>
        <time>2022-02-27T09:32:18.088Z</time>
      </trkpt>
      <trkpt lat="44.90022" lon="5.10296">
        <ele>410.91</ele>
        <time>2022-02-27T09:32:37.187Z</time>
      </trkpt>
      <trkpt lat="44.90022" lon="5.10269">
        <ele>409.62</ele>
        <time>2022-02-27T09:32:55.674Z</time>
      </trkpt>
      <trkpt lat="44.90023" lon="5.10256">
        <ele>409.15</ele>
        <time>2022-02-27T09:33:06.845Z</time>
      </trkpt>
      <trkpt lat="44.90025" lon="5.10218">
        <ele>409.86</ele>
        <time>2022-02-27T09:33:28.490Z</time>
      </trkpt>
      <trkpt lat="44.90032" lon="5.10187">
        <ele>410.05</ele>
        <time>2022-02-27T09:33:47.150Z</time>
      </trkpt>
      <trkpt lat="44.90035" lon="5.10172">
        <ele>410.65</ele>
        <time>2022-02-27T09:33:56.489Z</time>
      </trkpt>
      <trkpt lat="44.90047" lon="5.1015">
        <ele>408.92</ele>
        <time>2022-02-27T09:34:15.767Z</time>
      </trkpt>
      <trkpt lat="44.90056" lon="5.10121">
        <ele>411.7</ele>
        <time>2022-02-27T09:34:33.883Z</time>
      </trkpt>
      <trkpt lat="44.90065" lon="5.10106">
        <ele>411.24</ele>
        <time>2022-02-27T09:34:44.084Z</time>
      </trkpt>
      <trkpt lat="44.90075" lon="5.10084">
        <ele>411.55</ele>
        <time>2022-02-27T09:35:04.693Z</time>
      </trkpt>
      <trkpt lat="44.90083" lon="5.10052">
        <ele>414.11</ele>
        <time>2022-02-27T09:35:23.984Z</time>
      </trkpt>
      <trkpt lat="44.90083" lon="5.10038">
        <ele>416.52</ele>
        <time>2022-02-27T09:35:33.533Z</time>
      </trkpt>
      <trkpt lat="44.90089" lon="5.10015">
        <ele>416.69</ele>
        <time>2022-02-27T09:35:53.750Z</time>
      </trkpt>
      <trkpt lat="44.90093" lon="5.09989">
        <ele>417.02</ele>
        <time>2022-02-27T09:36:16.999Z</time>
      </trkpt>
      <trkpt lat="44.90093" lon="5.09975">
        <ele>418.28</ele>
        <time>2022-02-27T09:36:26.728Z</time>
      </trkpt>
      <trkpt lat="44.90092" lon="5.09943">
        <ele>419.73</ele>
        <time>2022-02-27T09:36:45.044Z</time>
      </trkpt>
      <trkpt lat="44.90096" lon="5.09915">
        <ele>418.03</ele>
        <time>2022-02-27T09:37:15.167Z</time>
      </trkpt>
      <trkpt lat="44.90097" lon="5.09893">
        <ele>416.59</ele>
        <time>2022-02-27T09:37:24.829Z</time>
      </trkpt>
      <trkpt lat="44.90094" lon="5.0986">
        <ele>414.73</ele>
        <time>2022-02-27T09:37:43.124Z</time>
      </trkpt>
      <trkpt lat="44.90082" lon="5.09832">
        <ele>415.32</ele>
        <time>2022-02-27T09:38:02.639Z</time>
      </trkpt>
      <trkpt lat="44.90074" lon="5.09825">
        <ele>416.54</ele>
        <time>2022-02-27T09:38:21.841Z</time>
      </trkpt>
      <trkpt lat="44.90055" lon="5.09804">
        <ele>418.28</ele>
        <time>2022-02-27T09:38:41.052Z</time>
      </trkpt>
      <trkpt lat="44.9004" lon="5.09788">
        <ele>418.62</ele>
        <time>2022-02-27T09:39:42.625Z</time>
      </trkpt>
      <trkpt lat="44.90034" lon="5.09778">
        <ele>417.6</ele>
        <time>2022-02-27T09:39:56.052Z</time>
      </trkpt>
      <trkpt lat="44.90013" lon="5.09746">
        <ele>414.57</ele>
        <time>2022-02-27T09:40:16.124Z</time>
      </trkpt>
      <trkpt lat="44.89991" lon="5.09736">
        <ele>414.71</ele>
        <time>2022-02-27T09:40:35.644Z</time>
      </trkpt>
      <trkpt lat="44.89983" lon="5.09734">
        <ele>414.74</ele>
        <time>2022-02-27T09:40:45.867Z</time>
      </trkpt>
      <trkpt lat="44.89962" lon="5.09725">
        <ele>413.05</ele>
        <time>2022-02-27T09:41:04.566Z</time>
      </trkpt>
      <trkpt lat="44.89942" lon="5.09723">
        <ele>411.64</ele>
        <time>2022-02-27T09:41:25.864Z</time>
      </trkpt>
      <trkpt lat="44.89929" lon="5.09732">
        <ele>412.23</ele>
        <time>2022-02-27T09:42:07.968Z</time>
      </trkpt>
      <trkpt lat="44.89915" lon="5.09758">
        <ele>416.81</ele>
        <time>2022-02-27T09:42:27.871Z</time>
      </trkpt>
      <trkpt lat="44.89903" lon="5.09778">
        <ele>420.24</ele>
        <time>2022-02-27T09:42:48.000Z</time>
      </trkpt>
      <trkpt lat="44.89896" lon="5.09789">
        <ele>421.53</ele>
        <time>2022-02-27T09:43:02.182Z</time>
      </trkpt>
      <trkpt lat="44.89883" lon="5.09812">
        <ele>423.21</ele>
        <time>2022-02-27T09:43:22.744Z</time>
      </trkpt>
      <trkpt lat="44.89872" lon="5.09834">
        <ele>424.21</ele>
        <time>2022-02-27T09:43:41.134Z</time>
      </trkpt>
      <trkpt lat="44.89869" lon="5.09847">
        <ele>426.97</ele>
        <time>2022-02-27T09:43:50.968Z</time>
      </trkpt>
      <trkpt lat="44.89867" lon="5.09872">
        <ele>434.64</ele>
        <time>2022-02-27T09:44:12.650Z</time>
      </trkpt>
      <trkpt lat="44.89861" lon="5.09898">
        <ele>439.67</ele>
        <time>2022-02-27T09:44:36.011Z</time>
      </trkpt>
      <trkpt lat="44.89858" lon="5.0991">
        <ele>441.14</ele>
        <time>2022-02-27T09:44:48.647Z</time>
      </trkpt>
      <trkpt lat="44.89852" lon="5.09934">
        <ele>443.25</ele>
        <time>2022-02-27T09:45:12.511Z</time>
      </trkpt>
      <trkpt lat="44.89857" lon="5.09945">
        <ele>448.38</ele>
        <time>2022-02-27T09:45:26.647Z</time>
      </trkpt>
      <trkpt lat="44.89864" lon="5.0997">
        <ele>457.12</ele>
        <time>2022-02-27T09:46:04.725Z</time>
      </trkpt>
      <trkpt lat="44.89867" lon="5.09997">
        <ele>463.36</ele>
        <time>2022-02-27T09:46:30.948Z</time>
      </trkpt>
      <trkpt lat="44.89867" lon="5.1001">
        <ele>465.29</ele>
        <time>2022-02-27T09:46:44.999Z</time>
      </trkpt>
      <trkpt lat="44.89867" lon="5.10036">
        <ele>468.25</ele>
        <time>2022-02-27T09:47:15.783Z</time>
      </trkpt>
      <trkpt lat="44.89865" lon="5.10061">
        <ele>469.7</ele>
        <time>2022-02-27T09:47:42.999Z</time>
      </trkpt>
      <trkpt lat="44.89863" lon="5.10074">
        <ele>469.66</ele>
        <time>2022-02-27T09:47:56.669Z</time>
      </trkpt>
      <trkpt lat="44.89863" lon="5.101">
        <ele>472.06</ele>
        <time>2022-02-27T09:48:25.708Z</time>
      </trkpt>
      <trkpt lat="44.8986" lon="5.10125">
        <ele>473.1</ele>
        <time>2022-02-27T09:48:53.725Z</time>
      </trkpt>
      <trkpt lat="44.89856" lon="5.10137">
        <ele>474.08</ele>
        <time>2022-02-27T09:49:09.391Z</time>
      </trkpt>
      <trkpt lat="44.89866" lon="5.10159">
        <ele>474.95</ele>
        <time>2022-02-27T09:50:09.165Z</time>
      </trkpt>
      <trkpt lat="44.89881" lon="5.10139">
        <ele>472.01</ele>
        <time>2022-02-27T09:50:39.172Z</time>
      </trkpt>
      <trkpt lat="44.89886" lon="5.10128">
        <ele>472.5</ele>
        <time>2022-02-27T09:50:53.644Z</time>
      </trkpt>
      <trkpt lat="44.89899" lon="5.10102">
        <ele>476.53</ele>
        <time>2022-02-27T09:51:20.051Z</time>
      </trkpt>
      <trkpt lat="44.89918" lon="5.10072">
        <ele>482.22</ele>
        <time>2022-02-27T09:51:39.889Z</time>
      </trkpt>
      <trkpt lat="44.89921" lon="5.10057">
        <ele>485.1</ele>
        <time>2022-02-27T09:51:50.150Z</time>
      </trkpt>
      <trkpt lat="44.89931" lon="5.10035">
        <ele>487.89</ele>
        <time>2022-02-27T09:52:25.170Z</time>
      </trkpt>
      <trkpt lat="44.89941" lon="5.10014">
        <ele>487.95</ele>
        <time>2022-02-27T09:52:53.907Z</time>
      </trkpt>
      <trkpt lat="44.89939" lon="5.09998">
        <ele>489.23</ele>
        <time>2022-02-27T09:53:33.619Z</time>
      </trkpt>
      <trkpt lat="44.89943" lon="5.09975">
        <ele>487.18</ele>
        <time>2022-02-27T09:53:52.818Z</time>
      </trkpt>
      <trkpt lat="44.89954" lon="5.09954">
        <ele>483.25</ele>
        <time>2022-02-27T09:54:12.970Z</time>
      </trkpt>
      <trkpt lat="44.89963" lon="5.09949">
        <ele>481.36</ele>
        <time>2022-02-27T09:55:07.999Z</time>
      </trkpt>
      <trkpt lat="44.89937" lon="5.09986">
        <ele>489.22</ele>
        <time>2022-02-27T10:00:35.164Z</time>
      </trkpt>
      <trkpt lat="44.8993" lon="5.10009">
        <ele>490.89</ele>
        <time>2022-02-27T10:01:59.000Z</time>
      </trkpt>
      <trkpt lat="44.89933" lon="5.10021">
        <ele>489.31</ele>
        <time>2022-02-27T10:02:08.293Z</time>
      </trkpt>
      <trkpt lat="44.89924" lon="5.10055">
        <ele>485.09</ele>
        <time>2022-02-27T10:02:41.000Z</time>
      </trkpt>
      <trkpt lat="44.89912" lon="5.10088">
        <ele>479.34</ele>
        <time>2022-02-27T10:02:59.193Z</time>
      </trkpt>
      <trkpt lat="44.89904" lon="5.10102">
        <ele>476.54</ele>
        <time>2022-02-27T10:03:08.988Z</time>
      </trkpt>
      <trkpt lat="44.89891" lon="5.10121">
        <ele>473.13</ele>
        <time>2022-02-27T10:03:37.000Z</time>
      </trkpt>
      <trkpt lat="44.89872" lon="5.10147">
        <ele>473.18</ele>
        <time>2022-02-27T10:04:00.030Z</time>
      </trkpt>
      <trkpt lat="44.89867" lon="5.10164">
        <ele>475.15</ele>
        <time>2022-02-27T10:04:09.985Z</time>
      </trkpt>
      <trkpt lat="44.89852" lon="5.10181">
        <ele>481.25</ele>
        <time>2022-02-27T10:04:32.822Z</time>
      </trkpt>
      <trkpt lat="44.89843" lon="5.10205">
        <ele>489.33</ele>
        <time>2022-02-27T10:04:54.013Z</time>
      </trkpt>
      <trkpt lat="44.89835" lon="5.10212">
        <ele>492.71</ele>
        <time>2022-02-27T10:05:03.729Z</time>
      </trkpt>
      <trkpt lat="44.89815" lon="5.1024">
        <ele>500.3</ele>
        <time>2022-02-27T10:05:53.625Z</time>
      </trkpt>
      <trkpt lat="44.89788" lon="5.10267">
        <ele>502.76</ele>
        <time>2022-02-27T10:06:12.071Z</time>
      </trkpt>
      <trkpt lat="44.8978" lon="5.10276">
        <ele>504.13</ele>
        <time>2022-02-27T10:06:22.009Z</time>
      </trkpt>
      <trkpt lat="44.89764" lon="5.10295">
        <ele>507.84</ele>
        <time>2022-02-27T10:06:48.948Z</time>
      </trkpt>
      <trkpt lat="44.89748" lon="5.10308">
        <ele>510.12</ele>
        <time>2022-02-27T10:07:16.045Z</time>
      </trkpt>
      <trkpt lat="44.89742" lon="5.10318">
        <ele>512.65</ele>
        <time>2022-02-27T10:07:25.121Z</time>
      </trkpt>
      <trkpt lat="44.89727" lon="5.10342">
        <ele>516.15</ele>
        <time>2022-02-27T10:07:53.112Z</time>
      </trkpt>
      <trkpt lat="44.89714" lon="5.10367">
        <ele>518.9</ele>
        <time>2022-02-27T10:08:42.028Z</time>
      </trkpt>
      <trkpt lat="44.89705" lon="5.10382">
        <ele>520.61</ele>
        <time>2022-02-27T10:09:42.999Z</time>
      </trkpt>
      <trkpt lat="44.89687" lon="5.10404">
        <ele>523.92</ele>
        <time>2022-02-27T10:10:01.084Z</time>
      </trkpt>
      <trkpt lat="44.89675" lon="5.10424">
        <ele>526.71</ele>
        <time>2022-02-27T10:10:20.047Z</time>
      </trkpt>
      <trkpt lat="44.89668" lon="5.10434">
        <ele>527.52</ele>
        <time>2022-02-27T10:10:29.723Z</time>
      </trkpt>
      <trkpt lat="44.89657" lon="5.10458">
        <ele>528.68</ele>
        <time>2022-02-27T10:10:49.653Z</time>
      </trkpt>
      <trkpt lat="44.89654" lon="5.10512">
        <ele>531.23</ele>
        <time>2022-02-27T10:11:59.802Z</time>
      </trkpt>
      <trkpt lat="44.89651" lon="5.10524">
        <ele>531.68</ele>
        <time>2022-02-27T10:12:08.972Z</time>
      </trkpt>
      <trkpt lat="44.89621" lon="5.10578">
        <ele>538.71</ele>
        <time>2022-02-27T10:13:23.160Z</time>
      </trkpt>
      <trkpt lat="44.896" lon="5.10613">
        <ele>550.35</ele>
        <time>2022-02-27T10:14:22.168Z</time>
      </trkpt>
      <trkpt lat="44.89581" lon="5.1064">
        <ele>559.3</ele>
        <time>2022-02-27T10:14:31.788Z</time>
      </trkpt>
      <trkpt lat="44.89563" lon="5.10687">
        <ele>568.27</ele>
        <time>2022-02-27T10:14:50.362Z</time>
      </trkpt>
      <trkpt lat="44.8956" lon="5.10722">
        <ele>573.56</ele>
        <time>2022-02-27T10:15:16.930Z</time>
      </trkpt>
      <trkpt lat="44.89554" lon="5.10734">
        <ele>573.95</ele>
        <time>2022-02-27T10:15:26.125Z</time>
      </trkpt>
      <trkpt lat="44.89544" lon="5.1076">
        <ele>575.46</ele>
        <time>2022-02-27T10:16:01.000Z</time>
      </trkpt>
      <trkpt lat="44.89528" lon="5.10787">
        <ele>579.64</ele>
        <time>2022-02-27T10:16:34.995Z</time>
      </trkpt>
      <trkpt lat="44.89516" lon="5.10799">
        <ele>582</ele>
        <time>2022-02-27T10:16:44.000Z</time>
      </trkpt>
      <trkpt lat="44.89491" lon="5.10828">
        <ele>588.17</ele>
        <time>2022-02-27T10:17:04.031Z</time>
      </trkpt>
      <trkpt lat="44.89465" lon="5.10849">
        <ele>586.48</ele>
        <time>2022-02-27T10:18:58.102Z</time>
      </trkpt>
      <trkpt lat="44.89453" lon="5.10856">
        <ele>585.23</ele>
        <time>2022-02-27T10:19:08.001Z</time>
      </trkpt>
      <trkpt lat="44.89438" lon="5.10872">
        <ele>583.2</ele>
        <time>2022-02-27T10:19:34.670Z</time>
      </trkpt>
      <trkpt lat="44.89419" lon="5.10882">
        <ele>583.27</ele>
        <time>2022-02-27T10:19:52.768Z</time>
      </trkpt>
      <trkpt lat="44.89408" lon="5.10884">
        <ele>584.47</ele>
        <time>2022-02-27T10:20:02.145Z</time>
      </trkpt>
      <trkpt lat="44.89386" lon="5.10888">
        <ele>588.14</ele>
        <time>2022-02-27T10:20:20.989Z</time>
      </trkpt>
      <trkpt lat="44.89364" lon="5.109">
        <ele>591.3</ele>
        <time>2022-02-27T10:20:39.144Z</time>
      </trkpt>
      <trkpt lat="44.89355" lon="5.10907">
        <ele>592.12</ele>
        <time>2022-02-27T10:20:48.400Z</time>
      </trkpt>
      <trkpt lat="44.89331" lon="5.10926">
        <ele>594.23</ele>
        <time>2022-02-27T10:21:06.789Z</time>
      </trkpt>
      <trkpt lat="44.8931" lon="5.10941">
        <ele>596.59</ele>
        <time>2022-02-27T10:21:25.808Z</time>
      </trkpt>
      <trkpt lat="44.89298" lon="5.10947">
        <ele>598.87</ele>
        <time>2022-02-27T10:21:35.209Z</time>
      </trkpt>
      <trkpt lat="44.8928" lon="5.10963">
        <ele>600.88</ele>
        <time>2022-02-27T10:21:53.685Z</time>
      </trkpt>
      <trkpt lat="44.89258" lon="5.1098">
        <ele>602.37</ele>
        <time>2022-02-27T10:22:13.000Z</time>
      </trkpt>
      <trkpt lat="44.89249" lon="5.10988">
        <ele>602.32</ele>
        <time>2022-02-27T10:22:22.143Z</time>
      </trkpt>
      <trkpt lat="44.89235" lon="5.11016">
        <ele>603.06</ele>
        <time>2022-02-27T10:23:12.771Z</time>
      </trkpt>
      <trkpt lat="44.89203" lon="5.11065">
        <ele>609.42</ele>
        <time>2022-02-27T10:23:31.268Z</time>
      </trkpt>
      <trkpt lat="44.89192" lon="5.1108">
        <ele>610.21</ele>
        <time>2022-02-27T10:23:40.270Z</time>
      </trkpt>
      <trkpt lat="44.89169" lon="5.11088">
        <ele>610.1</ele>
        <time>2022-02-27T10:23:58.944Z</time>
      </trkpt>
      <trkpt lat="44.89148" lon="5.11115">
        <ele>609.1</ele>
        <time>2022-02-27T10:25:10.204Z</time>
      </trkpt>
      <trkpt lat="44.89138" lon="5.1113">
        <ele>609.32</ele>
        <time>2022-02-27T10:25:19.999Z</time>
      </trkpt>
      <trkpt lat="44.89125" lon="5.11179">
        <ele>614.64</ele>
        <time>2022-02-27T10:26:33.688Z</time>
      </trkpt>
      <trkpt lat="44.8911" lon="5.11244">
        <ele>627.7</ele>
        <time>2022-02-27T10:26:52.428Z</time>
      </trkpt>
      <trkpt lat="44.89107" lon="5.11256">
        <ele>629.92</ele>
        <time>2022-02-27T10:27:02.549Z</time>
      </trkpt>
      <trkpt lat="44.89105" lon="5.11287">
        <ele>630.92</ele>
        <time>2022-02-27T10:27:21.999Z</time>
      </trkpt>
      <trkpt lat="44.891" lon="5.11313">
        <ele>632.27</ele>
        <time>2022-02-27T10:27:49.789Z</time>
      </trkpt>
      <trkpt lat="44.89093" lon="5.11323">
        <ele>634.41</ele>
        <time>2022-02-27T10:27:58.887Z</time>
      </trkpt>
      <trkpt lat="44.89073" lon="5.1135">
        <ele>638.44</ele>
        <time>2022-02-27T10:28:30.445Z</time>
      </trkpt>
      <trkpt lat="44.89049" lon="5.11377">
        <ele>639.45</ele>
        <time>2022-02-27T10:28:49.942Z</time>
      </trkpt>
      <trkpt lat="44.89041" lon="5.11386">
        <ele>638.49</ele>
        <time>2022-02-27T10:29:11.636Z</time>
      </trkpt>
      <trkpt lat="44.89022" lon="5.11399">
        <ele>637.36</ele>
        <time>2022-02-27T10:29:37.351Z</time>
      </trkpt>
      <trkpt lat="44.88997" lon="5.11411">
        <ele>635.96</ele>
        <time>2022-02-27T10:29:56.982Z</time>
      </trkpt>
      <trkpt lat="44.88983" lon="5.11422">
        <ele>634.56</ele>
        <time>2022-02-27T10:30:06.907Z</time>
      </trkpt>
      <trkpt lat="44.88957" lon="5.11439">
        <ele>633.97</ele>
        <time>2022-02-27T10:30:25.431Z</time>
      </trkpt>
      <trkpt lat="44.88936" lon="5.11449">
        <ele>634.59</ele>
        <time>2022-02-27T10:30:44.989Z</time>
      </trkpt>
      <trkpt lat="44.88967" lon="5.11598">
        <ele>593.5</ele>
        <time>2022-02-27T10:38:18.208Z</time>
      </trkpt>
      <trkpt lat="44.88997" lon="5.11604">
        <ele>584.9</ele>
        <time>2022-02-27T10:39:03.733Z</time>
      </trkpt>
      <trkpt lat="44.89019" lon="5.11605">
        <ele>578.36</ele>
        <time>2022-02-27T10:39:51.249Z</time>
      </trkpt>
      <trkpt lat="44.89027" lon="5.11612">
        <ele>577.83</ele>
        <time>2022-02-27T10:40:02.869Z</time>
      </trkpt>
      <trkpt lat="44.89047" lon="5.11624">
        <ele>573.77</ele>
        <time>2022-02-27T10:40:21.016Z</time>
      </trkpt>
      <trkpt lat="44.89065" lon="5.11638">
        <ele>569.56</ele>
        <time>2022-02-27T10:40:43.056Z</time>
      </trkpt>
      <trkpt lat="44.89071" lon="5.1165">
        <ele>569.23</ele>
        <time>2022-02-27T10:40:52.254Z</time>
      </trkpt>
      <trkpt lat="44.89077" lon="5.11679">
        <ele>569.12</ele>
        <time>2022-02-27T10:41:12.572Z</time>
      </trkpt>
      <trkpt lat="44.89092" lon="5.11705">
        <ele>565.83</ele>
        <time>2022-02-27T10:41:31.314Z</time>
      </trkpt>
      <trkpt lat="44.891" lon="5.11713">
        <ele>564.56</ele>
        <time>2022-02-27T10:41:44.411Z</time>
      </trkpt>
      <trkpt lat="44.8911" lon="5.11742">
        <ele>565.82</ele>
        <time>2022-02-27T10:42:03.529Z</time>
      </trkpt>
      <trkpt lat="44.89122" lon="5.11765">
        <ele>566.1</ele>
        <time>2022-02-27T10:42:22.776Z</time>
      </trkpt>
      <trkpt lat="44.89134" lon="5.11771">
        <ele>564.63</ele>
        <time>2022-02-27T10:42:32.055Z</time>
      </trkpt>
      <trkpt lat="44.89149" lon="5.11789">
        <ele>563.03</ele>
        <time>2022-02-27T10:42:55.854Z</time>
      </trkpt>
      <trkpt lat="44.89154" lon="5.11816">
        <ele>563.15</ele>
        <time>2022-02-27T10:43:28.552Z</time>
      </trkpt>
      <trkpt lat="44.89163" lon="5.11818">
        <ele>561.1</ele>
        <time>2022-02-27T10:43:37.972Z</time>
      </trkpt>
      <trkpt lat="44.89183" lon="5.11821">
        <ele>556.86</ele>
        <time>2022-02-27T10:44:05.468Z</time>
      </trkpt>
      <trkpt lat="44.892" lon="5.11829">
        <ele>553.59</ele>
        <time>2022-02-27T10:44:32.377Z</time>
      </trkpt>
      <trkpt lat="44.89209" lon="5.11832">
        <ele>551.97</ele>
        <time>2022-02-27T10:44:44.835Z</time>
      </trkpt>
      <trkpt lat="44.89235" lon="5.11838">
        <ele>547.21</ele>
        <time>2022-02-27T10:45:03.473Z</time>
      </trkpt>
      <trkpt lat="44.89253" lon="5.11843">
        <ele>543.67</ele>
        <time>2022-02-27T10:45:22.653Z</time>
      </trkpt>
      <trkpt lat="44.89263" lon="5.11846">
        <ele>541.59</ele>
        <time>2022-02-27T10:45:31.849Z</time>
      </trkpt>
      <trkpt lat="44.89284" lon="5.11848">
        <ele>537.33</ele>
        <time>2022-02-27T10:45:50.629Z</time>
      </trkpt>
      <trkpt lat="44.89302" lon="5.11833">
        <ele>532.86</ele>
        <time>2022-02-27T10:46:09.709Z</time>
      </trkpt>
      <trkpt lat="44.89304" lon="5.11814">
        <ele>531.06</ele>
        <time>2022-02-27T10:46:19.227Z</time>
      </trkpt>
      <trkpt lat="44.89318" lon="5.11792">
        <ele>526.55</ele>
        <time>2022-02-27T10:46:47.396Z</time>
      </trkpt>
      <trkpt lat="44.89336" lon="5.1177">
        <ele>522.85</ele>
        <time>2022-02-27T10:47:05.512Z</time>
      </trkpt>
      <trkpt lat="44.89344" lon="5.1176">
        <ele>522.16</ele>
        <time>2022-02-27T10:47:14.552Z</time>
      </trkpt>
      <trkpt lat="44.89359" lon="5.11746">
        <ele>522.11</ele>
        <time>2022-02-27T10:47:33.851Z</time>
      </trkpt>
      <trkpt lat="44.89377" lon="5.11755">
        <ele>524.24</ele>
        <time>2022-02-27T10:47:53.730Z</time>
      </trkpt>
      <trkpt lat="44.89387" lon="5.11755">
        <ele>525.54</ele>
        <time>2022-02-27T10:48:03.516Z</time>
      </trkpt>
      <trkpt lat="44.89406" lon="5.11757">
        <ele>528.35</ele>
        <time>2022-02-27T10:48:26.693Z</time>
      </trkpt>
      <trkpt lat="44.89423" lon="5.1175">
        <ele>531.09</ele>
        <time>2022-02-27T10:48:47.333Z</time>
      </trkpt>
      <trkpt lat="44.89432" lon="5.11747">
        <ele>532.72</ele>
        <time>2022-02-27T10:48:58.389Z</time>
      </trkpt>
      <trkpt lat="44.89449" lon="5.11738">
        <ele>535.78</ele>
        <time>2022-02-27T10:49:16.798Z</time>
      </trkpt>
      <trkpt lat="44.89466" lon="5.11721">
        <ele>536.44</ele>
        <time>2022-02-27T10:49:35.376Z</time>
      </trkpt>
      <trkpt lat="44.89475" lon="5.11716">
        <ele>537.3</ele>
        <time>2022-02-27T10:49:45.476Z</time>
      </trkpt>
      <trkpt lat="44.89494" lon="5.11697">
        <ele>536.67</ele>
        <time>2022-02-27T10:50:05.394Z</time>
      </trkpt>
      <trkpt lat="44.89513" lon="5.11675">
        <ele>536.46</ele>
        <time>2022-02-27T10:50:23.913Z</time>
      </trkpt>
      <trkpt lat="44.8952" lon="5.11661">
        <ele>536.34</ele>
        <time>2022-02-27T10:50:33.714Z</time>
      </trkpt>
      <trkpt lat="44.8953" lon="5.11629">
        <ele>533.53</ele>
        <time>2022-02-27T10:50:52.895Z</time>
      </trkpt>
      <trkpt lat="44.89539" lon="5.11594">
        <ele>528.78</ele>
        <time>2022-02-27T10:51:11.512Z</time>
      </trkpt>
      <trkpt lat="44.89543" lon="5.11582">
        <ele>527.4</ele>
        <time>2022-02-27T10:51:20.771Z</time>
      </trkpt>
      <trkpt lat="44.89559" lon="5.11563">
        <ele>530.25</ele>
        <time>2022-02-27T10:51:40.788Z</time>
      </trkpt>
      <trkpt lat="44.8957" lon="5.11537">
        <ele>529.05</ele>
        <time>2022-02-27T10:51:59.657Z</time>
      </trkpt>
      <trkpt lat="44.8958" lon="5.11528">
        <ele>530.31</ele>
        <time>2022-02-27T10:52:08.935Z</time>
      </trkpt>
      <trkpt lat="44.89596" lon="5.11506">
        <ele>528.43</ele>
        <time>2022-02-27T10:52:28.456Z</time>
      </trkpt>
      <trkpt lat="44.89613" lon="5.11493">
        <ele>528.37</ele>
        <time>2022-02-27T10:52:47.051Z</time>
      </trkpt>
      <trkpt lat="44.89622" lon="5.11482">
        <ele>526.35</ele>
        <time>2022-02-27T10:52:56.450Z</time>
      </trkpt>
      <trkpt lat="44.89642" lon="5.11466">
        <ele>523.35</ele>
        <time>2022-02-27T10:53:14.936Z</time>
      </trkpt>
      <trkpt lat="44.8966" lon="5.11454">
        <ele>519.89</ele>
        <time>2022-02-27T10:53:34.913Z</time>
      </trkpt>
      <trkpt lat="44.89668" lon="5.11444">
        <ele>516.43</ele>
        <time>2022-02-27T10:53:44.153Z</time>
      </trkpt>
      <trkpt lat="44.89687" lon="5.11435">
        <ele>512.56</ele>
        <time>2022-02-27T10:54:03.651Z</time>
      </trkpt>
      <trkpt lat="44.89708" lon="5.11421">
        <ele>507.96</ele>
        <time>2022-02-27T10:54:34.999Z</time>
      </trkpt>
      <trkpt lat="44.89717" lon="5.11417">
        <ele>506.57</ele>
        <time>2022-02-27T10:54:44.677Z</time>
      </trkpt>
      <trkpt lat="44.89738" lon="5.11405">
        <ele>503.73</ele>
        <time>2022-02-27T10:55:03.914Z</time>
      </trkpt>
      <trkpt lat="44.89756" lon="5.11397">
        <ele>501.64</ele>
        <time>2022-02-27T10:55:24.573Z</time>
      </trkpt>
      <trkpt lat="44.89767" lon="5.1139">
        <ele>500.36</ele>
        <time>2022-02-27T10:55:33.764Z</time>
      </trkpt>
      <trkpt lat="44.89785" lon="5.11368">
        <ele>498.98</ele>
        <time>2022-02-27T10:55:53.208Z</time>
      </trkpt>
      <trkpt lat="44.89803" lon="5.11365">
        <ele>498.68</ele>
        <time>2022-02-27T10:56:11.857Z</time>
      </trkpt>
      <trkpt lat="44.89807" lon="5.11377">
        <ele>497.27</ele>
        <time>2022-02-27T10:56:26.856Z</time>
      </trkpt>
      <trkpt lat="44.89811" lon="5.11413">
        <ele>491.35</ele>
        <time>2022-02-27T10:56:46.213Z</time>
      </trkpt>
      <trkpt lat="44.89808" lon="5.1144">
        <ele>487.72</ele>
        <time>2022-02-27T10:57:04.932Z</time>
      </trkpt>
      <trkpt lat="44.89812" lon="5.11452">
        <ele>484.51</ele>
        <time>2022-02-27T10:57:14.000Z</time>
      </trkpt>
      <trkpt lat="44.89827" lon="5.11475">
        <ele>477.3</ele>
        <time>2022-02-27T10:57:32.552Z</time>
      </trkpt>
      <trkpt lat="44.89831" lon="5.11496">
        <ele>473.87</ele>
        <time>2022-02-27T10:57:54.850Z</time>
      </trkpt>
      <trkpt lat="44.89825" lon="5.1151">
        <ele>474.05</ele>
        <time>2022-02-27T10:58:04.387Z</time>
      </trkpt>
      <trkpt lat="44.89814" lon="5.1153">
        <ele>476.48</ele>
        <time>2022-02-27T10:58:25.277Z</time>
      </trkpt>
      <trkpt lat="44.89821" lon="5.11554">
        <ele>475.17</ele>
        <time>2022-02-27T10:58:43.831Z</time>
      </trkpt>
      <trkpt lat="44.89827" lon="5.11564">
        <ele>473.84</ele>
        <time>2022-02-27T10:58:53.000Z</time>
      </trkpt>
      <trkpt lat="44.89837" lon="5.11589">
        <ele>470.8</ele>
        <time>2022-02-27T10:59:11.651Z</time>
      </trkpt>
      <trkpt lat="44.89847" lon="5.11617">
        <ele>468.36</ele>
        <time>2022-02-27T10:59:30.092Z</time>
      </trkpt>
      <trkpt lat="44.89847" lon="5.11633">
        <ele>468.29</ele>
        <time>2022-02-27T10:59:39.107Z</time>
      </trkpt>
      <trkpt lat="44.8985" lon="5.11667">
        <ele>467.61</ele>
        <time>2022-02-27T10:59:57.258Z</time>
      </trkpt>
      <trkpt lat="44.8985" lon="5.11699">
        <ele>466.71</ele>
        <time>2022-02-27T11:00:15.597Z</time>
      </trkpt>
      <trkpt lat="44.89853" lon="5.11719">
        <ele>465.62</ele>
        <time>2022-02-27T11:00:25.000Z</time>
      </trkpt>
      <trkpt lat="44.89845" lon="5.11746">
        <ele>466.53</ele>
        <time>2022-02-27T11:00:43.736Z</time>
      </trkpt>
      <trkpt lat="44.8983" lon="5.11766">
        <ele>469.32</ele>
        <time>2022-02-27T11:01:02.571Z</time>
      </trkpt>
      <trkpt lat="44.89826" lon="5.11778">
        <ele>469.91</ele>
        <time>2022-02-27T11:01:12.212Z</time>
      </trkpt>
      <trkpt lat="44.89839" lon="5.11805">
        <ele>466.97</ele>
        <time>2022-02-27T11:01:30.596Z</time>
      </trkpt>
      <trkpt lat="44.89862" lon="5.11803">
        <ele>463.63</ele>
        <time>2022-02-27T11:01:49.316Z</time>
      </trkpt>
      <trkpt lat="44.89872" lon="5.11804">
        <ele>462.26</ele>
        <time>2022-02-27T11:01:58.794Z</time>
      </trkpt>
      <trkpt lat="44.89891" lon="5.11819">
        <ele>460.66</ele>
        <time>2022-02-27T11:02:17.352Z</time>
      </trkpt>
      <trkpt lat="44.89912" lon="5.11831">
        <ele>460.6</ele>
        <time>2022-02-27T11:02:36.593Z</time>
      </trkpt>
      <trkpt lat="44.89921" lon="5.11832">
        <ele>461.35</ele>
        <time>2022-02-27T11:02:45.854Z</time>
      </trkpt>
      <trkpt lat="44.89938" lon="5.11816">
        <ele>463.23</ele>
        <time>2022-02-27T11:03:04.279Z</time>
      </trkpt>
      <trkpt lat="44.89955" lon="5.11791">
        <ele>466.08</ele>
        <time>2022-02-27T11:03:22.846Z</time>
      </trkpt>
      <trkpt lat="44.89965" lon="5.11784">
        <ele>468.16</ele>
        <time>2022-02-27T11:03:31.855Z</time>
      </trkpt>
      <trkpt lat="44.89979" lon="5.1179">
        <ele>471.87</ele>
        <time>2022-02-27T11:03:51.712Z</time>
      </trkpt>
      <trkpt lat="44.89978" lon="5.11821">
        <ele>473.39</ele>
        <time>2022-02-27T11:04:10.713Z</time>
      </trkpt>
      <trkpt lat="44.89987" lon="5.11819">
        <ele>476.02</ele>
        <time>2022-02-27T11:04:22.491Z</time>
      </trkpt>
      <trkpt lat="44.89994" lon="5.11793">
        <ele>476.03</ele>
        <time>2022-02-27T11:04:41.470Z</time>
      </trkpt>
      <trkpt lat="44.90004" lon="5.11762">
        <ele>475.25</ele>
        <time>2022-02-27T11:05:02.755Z</time>
      </trkpt>
      <trkpt lat="44.90011" lon="5.11749">
        <ele>475.17</ele>
        <time>2022-02-27T11:05:12.214Z</time>
      </trkpt>
      <trkpt lat="44.90029" lon="5.11742">
        <ele>478.18</ele>
        <time>2022-02-27T11:05:39.849Z</time>
      </trkpt>
      <trkpt lat="44.90048" lon="5.11727">
        <ele>480.28</ele>
        <time>2022-02-27T11:06:00.207Z</time>
      </trkpt>
      <trkpt lat="44.90056" lon="5.11719">
        <ele>480.87</ele>
        <time>2022-02-27T11:06:12.857Z</time>
      </trkpt>
      <trkpt lat="44.90074" lon="5.11702">
        <ele>482.19</ele>
        <time>2022-02-27T11:06:32.973Z</time>
      </trkpt>
      <trkpt lat="44.90092" lon="5.11702">
        <ele>485.06</ele>
        <time>2022-02-27T11:06:57.452Z</time>
      </trkpt>
      <trkpt lat="44.90102" lon="5.117">
        <ele>486.03</ele>
        <time>2022-02-27T11:07:06.632Z</time>
      </trkpt>
      <trkpt lat="44.90125" lon="5.11703">
        <ele>488.64</ele>
        <time>2022-02-27T11:07:25.732Z</time>
      </trkpt>
      <trkpt lat="44.9015" lon="5.11697">
        <ele>488.41</ele>
        <time>2022-02-27T11:07:50.657Z</time>
      </trkpt>
      <trkpt lat="44.9016" lon="5.11697">
        <ele>488.71</ele>
        <time>2022-02-27T11:07:59.737Z</time>
      </trkpt>
      <trkpt lat="44.9018" lon="5.11687">
        <ele>486.35</ele>
        <time>2022-02-27T11:08:21.474Z</time>
      </trkpt>
      <trkpt lat="44.90206" lon="5.11678">
        <ele>483.32</ele>
        <time>2022-02-27T11:08:39.853Z</time>
      </trkpt>
      <trkpt lat="44.90215" lon="5.11678">
        <ele>482.95</ele>
        <time>2022-02-27T11:08:48.910Z</time>
      </trkpt>
      <trkpt lat="44.90258" lon="5.11676">
        <ele>480.53</ele>
        <time>2022-02-27T11:10:15.431Z</time>
      </trkpt>
      <trkpt lat="44.90295" lon="5.1169">
        <ele>482.46</ele>
        <time>2022-02-27T11:10:34.119Z</time>
      </trkpt>
      <trkpt lat="44.90313" lon="5.11703">
        <ele>484.81</ele>
        <time>2022-02-27T11:10:43.826Z</time>
      </trkpt>
      <trkpt lat="44.90335" lon="5.11718">
        <ele>486.9</ele>
        <time>2022-02-27T11:11:02.535Z</time>
      </trkpt>
      <trkpt lat="44.90358" lon="5.11729">
        <ele>486.9</ele>
        <time>2022-02-27T11:11:20.894Z</time>
      </trkpt>
      <trkpt lat="44.90367" lon="5.11735">
        <ele>487.09</ele>
        <time>2022-02-27T11:11:30.753Z</time>
      </trkpt>
      <trkpt lat="44.90383" lon="5.1175">
        <ele>487.62</ele>
        <time>2022-02-27T11:11:57.193Z</time>
      </trkpt>
      <trkpt lat="44.90397" lon="5.1177">
        <ele>488.1</ele>
        <time>2022-02-27T11:12:15.699Z</time>
      </trkpt>
      <trkpt lat="44.90406" lon="5.11777">
        <ele>487.22</ele>
        <time>2022-02-27T11:12:25.638Z</time>
      </trkpt>
      <trkpt lat="44.90421" lon="5.11795">
        <ele>485.76</ele>
        <time>2022-02-27T11:12:45.715Z</time>
      </trkpt>
      <trkpt lat="44.90432" lon="5.11816">
        <ele>485.01</ele>
        <time>2022-02-27T11:13:09.313Z</time>
      </trkpt>
      <trkpt lat="44.90429" lon="5.11829">
        <ele>486.72</ele>
        <time>2022-02-27T11:13:19.231Z</time>
      </trkpt>
      <trkpt lat="44.90415" lon="5.11854">
        <ele>492.8</ele>
        <time>2022-02-27T11:13:39.278Z</time>
      </trkpt>
      <trkpt lat="44.90429" lon="5.1187">
        <ele>492.05</ele>
        <time>2022-02-27T11:14:32.435Z</time>
      </trkpt>
      <trkpt lat="44.90438" lon="5.11867">
        <ele>489.7</ele>
        <time>2022-02-27T11:14:47.495Z</time>
      </trkpt>
      <trkpt lat="44.90456" lon="5.11869">
        <ele>485.89</ele>
        <time>2022-02-27T11:15:09.192Z</time>
      </trkpt>
      <trkpt lat="44.90472" lon="5.11896">
        <ele>485.7</ele>
        <time>2022-02-27T11:15:27.591Z</time>
      </trkpt>
      <trkpt lat="44.90476" lon="5.11907">
        <ele>485.43</ele>
        <time>2022-02-27T11:15:38.590Z</time>
      </trkpt>
      <trkpt lat="44.90489" lon="5.11947">
        <ele>478.88</ele>
        <time>2022-02-27T11:16:17.784Z</time>
      </trkpt>
      <trkpt lat="44.90495" lon="5.11979">
        <ele>471.05</ele>
        <time>2022-02-27T11:16:39.535Z</time>
      </trkpt>
      <trkpt lat="44.9049" lon="5.12001">
        <ele>469.67</ele>
        <time>2022-02-27T11:16:48.836Z</time>
      </trkpt>
      <trkpt lat="44.90486" lon="5.12026">
        <ele>469.26</ele>
        <time>2022-02-27T11:17:07.512Z</time>
      </trkpt>
      <trkpt lat="44.90482" lon="5.12052">
        <ele>469.82</ele>
        <time>2022-02-27T11:17:34.257Z</time>
      </trkpt>
      <trkpt lat="44.90492" lon="5.12065">
        <ele>468.08</ele>
        <time>2022-02-27T11:17:43.694Z</time>
      </trkpt>
      <trkpt lat="44.90509" lon="5.12078">
        <ele>466.05</ele>
        <time>2022-02-27T11:18:07.414Z</time>
      </trkpt>
      <trkpt lat="44.90528" lon="5.12076">
        <ele>463.06</ele>
        <time>2022-02-27T11:18:26.553Z</time>
      </trkpt>
      <trkpt lat="44.90537" lon="5.1207">
        <ele>461.31</ele>
        <time>2022-02-27T11:18:37.000Z</time>
      </trkpt>
      <trkpt lat="44.90555" lon="5.12058">
        <ele>458.21</ele>
        <time>2022-02-27T11:18:56.089Z</time>
      </trkpt>
      <trkpt lat="44.90574" lon="5.12062">
        <ele>456.81</ele>
        <time>2022-02-27T11:19:17.936Z</time>
      </trkpt>
      <trkpt lat="44.9058" lon="5.12074">
        <ele>457.38</ele>
        <time>2022-02-27T11:19:27.415Z</time>
      </trkpt>
      <trkpt lat="44.90599" lon="5.12084">
        <ele>456.96</ele>
        <time>2022-02-27T11:19:48.434Z</time>
      </trkpt>
      <trkpt lat="44.90617" lon="5.1209">
        <ele>456.24</ele>
        <time>2022-02-27T11:20:19.000Z</time>
      </trkpt>
      <trkpt lat="44.90618" lon="5.12109">
        <ele>457.1</ele>
        <time>2022-02-27T11:20:59.755Z</time>
      </trkpt>
      <trkpt lat="44.90605" lon="5.12133">
        <ele>459.39</ele>
        <time>2022-02-27T11:21:42.513Z</time>
      </trkpt>
      <trkpt lat="44.90593" lon="5.12158">
        <ele>462.74</ele>
        <time>2022-02-27T11:22:29.214Z</time>
      </trkpt>
      <trkpt lat="44.90587" lon="5.12169">
        <ele>464.57</ele>
        <time>2022-02-27T11:22:38.420Z</time>
      </trkpt>
      <trkpt lat="44.90574" lon="5.12191">
        <ele>468.73</ele>
        <time>2022-02-27T11:23:05.000Z</time>
      </trkpt>
      <trkpt lat="44.90554" lon="5.1222">
        <ele>474.17</ele>
        <time>2022-02-27T11:23:38.197Z</time>
      </trkpt>
      <trkpt lat="44.9055" lon="5.12231">
        <ele>475.35</ele>
        <time>2022-02-27T11:23:48.000Z</time>
      </trkpt>
      <trkpt lat="44.90536" lon="5.12261">
        <ele>478.84</ele>
        <time>2022-02-27T11:24:12.853Z</time>
      </trkpt>
      <trkpt lat="44.9053" lon="5.12286">
        <ele>482.19</ele>
        <time>2022-02-27T11:24:35.000Z</time>
      </trkpt>
      <trkpt lat="44.90525" lon="5.12298">
        <ele>484.45</ele>
        <time>2022-02-27T11:24:50.431Z</time>
      </trkpt>
      <trkpt lat="44.9052" lon="5.12325">
        <ele>488.38</ele>
        <time>2022-02-27T11:25:13.378Z</time>
      </trkpt>
      <trkpt lat="44.90519" lon="5.12352">
        <ele>491.19</ele>
        <time>2022-02-27T11:25:32.836Z</time>
      </trkpt>
      <trkpt lat="44.90513" lon="5.12362">
        <ele>493.42</ele>
        <time>2022-02-27T11:25:43.413Z</time>
      </trkpt>
      <trkpt lat="44.90503" lon="5.12393">
        <ele>498.02</ele>
        <time>2022-02-27T11:26:10.253Z</time>
      </trkpt>
      <trkpt lat="44.90493" lon="5.12416">
        <ele>499.86</ele>
        <time>2022-02-27T11:26:29.761Z</time>
      </trkpt>
      <trkpt lat="44.90488" lon="5.12428">
        <ele>499.64</ele>
        <time>2022-02-27T11:26:41.198Z</time>
      </trkpt>
      <trkpt lat="44.90479" lon="5.12451">
        <ele>498.51</ele>
        <time>2022-02-27T11:27:01.516Z</time>
      </trkpt>
      <trkpt lat="44.90461" lon="5.12462">
        <ele>500.27</ele>
        <time>2022-02-27T11:28:07.482Z</time>
      </trkpt>
      <trkpt lat="44.90449" lon="5.1247">
        <ele>502.49</ele>
        <time>2022-02-27T11:28:16.823Z</time>
      </trkpt>
      <trkpt lat="44.90433" lon="5.12488">
        <ele>506.56</ele>
        <time>2022-02-27T11:28:36.562Z</time>
      </trkpt>
      <trkpt lat="44.90427" lon="5.12498">
        <ele>508.3</ele>
        <time>2022-02-27T11:28:47.477Z</time>
      </trkpt>
      <trkpt lat="44.9041" lon="5.12519">
        <ele>510.33</ele>
        <time>2022-02-27T11:29:08.235Z</time>
      </trkpt>
      <trkpt lat="44.90393" lon="5.12529">
        <ele>510.94</ele>
        <time>2022-02-27T11:29:35.999Z</time>
      </trkpt>
      <trkpt lat="44.90383" lon="5.1253">
        <ele>511.2</ele>
        <time>2022-02-27T11:29:51.337Z</time>
      </trkpt>
      <trkpt lat="44.90364" lon="5.12539">
        <ele>511.99</ele>
        <time>2022-02-27T11:30:10.594Z</time>
      </trkpt>
      <trkpt lat="44.90358" lon="5.12564">
        <ele>514.38</ele>
        <time>2022-02-27T11:30:33.495Z</time>
      </trkpt>
      <trkpt lat="44.90355" lon="5.12576">
        <ele>515.82</ele>
        <time>2022-02-27T11:30:46.512Z</time>
      </trkpt>
      <trkpt lat="44.9035" lon="5.12601">
        <ele>518.28</ele>
        <time>2022-02-27T11:31:07.519Z</time>
      </trkpt>
      <trkpt lat="44.90353" lon="5.12628">
        <ele>518.54</ele>
        <time>2022-02-27T11:31:30.658Z</time>
      </trkpt>
      <trkpt lat="44.90352" lon="5.12641">
        <ele>519.35</ele>
        <time>2022-02-27T11:31:41.686Z</time>
      </trkpt>
      <trkpt lat="44.90345" lon="5.12676">
        <ele>522.68</ele>
        <time>2022-02-27T11:32:05.837Z</time>
      </trkpt>
      <trkpt lat="44.90337" lon="5.12703">
        <ele>526.42</ele>
        <time>2022-02-27T11:32:27.738Z</time>
      </trkpt>
      <trkpt lat="44.90331" lon="5.12714">
        <ele>528.36</ele>
        <time>2022-02-27T11:32:37.691Z</time>
      </trkpt>
      <trkpt lat="44.90313" lon="5.12717">
        <ele>531.05</ele>
        <time>2022-02-27T11:32:59.848Z</time>
      </trkpt>
      <trkpt lat="44.90292" lon="5.12708">
        <ele>531.79</ele>
        <time>2022-02-27T11:35:33.311Z</time>
      </trkpt>
      <trkpt lat="44.9028" lon="5.12704">
        <ele>531.8</ele>
        <time>2022-02-27T11:35:42.470Z</time>
      </trkpt>
      <trkpt lat="44.90261" lon="5.12705">
        <ele>531.87</ele>
        <time>2022-02-27T11:36:03.339Z</time>
      </trkpt>
      <trkpt lat="44.90237" lon="5.12709">
        <ele>532.39</ele>
        <time>2022-02-27T11:36:22.137Z</time>
      </trkpt>
      <trkpt lat="44.90225" lon="5.12711">
        <ele>532.39</ele>
        <time>2022-02-27T11:36:31.574Z</time>
      </trkpt>
      <trkpt lat="44.90205" lon="5.12694">
        <ele>530.53</ele>
        <time>2022-02-27T11:36:51.316Z</time>
      </trkpt>
      <trkpt lat="44.90186" lon="5.12679">
        <ele>528.69</ele>
        <time>2022-02-27T11:37:09.835Z</time>
      </trkpt>
      <trkpt lat="44.90177" lon="5.12671">
        <ele>527.81</ele>
        <time>2022-02-27T11:37:19.299Z</time>
      </trkpt>
      <trkpt lat="44.90157" lon="5.12656">
        <ele>525.98</ele>
        <time>2022-02-27T11:37:37.697Z</time>
      </trkpt>
      <trkpt lat="44.90139" lon="5.12645">
        <ele>524.05</ele>
        <time>2022-02-27T11:37:55.854Z</time>
      </trkpt>
      <trkpt lat="44.90129" lon="5.1264">
        <ele>522.79</ele>
        <time>2022-02-27T11:38:04.933Z</time>
      </trkpt>
      <trkpt lat="44.90111" lon="5.1263">
        <ele>520.5</ele>
        <time>2022-02-27T11:38:23.177Z</time>
      </trkpt>
      <trkpt lat="44.90103" lon="5.12653">
        <ele>519.45</ele>
        <time>2022-02-27T11:38:50.091Z</time>
      </trkpt>
      <trkpt lat="44.90104" lon="5.12672">
        <ele>519.71</ele>
        <time>2022-02-27T11:38:59.358Z</time>
      </trkpt>
      <trkpt lat="44.901" lon="5.12704">
        <ele>519.46</ele>
        <time>2022-02-27T11:39:18.136Z</time>
      </trkpt>
      <trkpt lat="44.90094" lon="5.12733">
        <ele>519.28</ele>
        <time>2022-02-27T11:39:37.213Z</time>
      </trkpt>
      <trkpt lat="44.90091" lon="5.12747">
        <ele>519.72</ele>
        <time>2022-02-27T11:39:46.252Z</time>
      </trkpt>
      <trkpt lat="44.90079" lon="5.1276">
        <ele>519.51</ele>
        <time>2022-02-27T11:40:16.420Z</time>
      </trkpt>
      <trkpt lat="44.90066" lon="5.12785">
        <ele>521.7</ele>
        <time>2022-02-27T11:40:52.674Z</time>
      </trkpt>
      <trkpt lat="44.90059" lon="5.12794">
        <ele>522.35</ele>
        <time>2022-02-27T11:41:01.733Z</time>
      </trkpt>
      <trkpt lat="44.90053" lon="5.12819">
        <ele>525.48</ele>
        <time>2022-02-27T11:41:21.532Z</time>
      </trkpt>
      <trkpt lat="44.90047" lon="5.12845">
        <ele>527.63</ele>
        <time>2022-02-27T11:41:40.888Z</time>
      </trkpt>
      <trkpt lat="44.90046" lon="5.12858">
        <ele>528.79</ele>
        <time>2022-02-27T11:41:50.218Z</time>
      </trkpt>
      <trkpt lat="44.90038" lon="5.12886">
        <ele>529.89</ele>
        <time>2022-02-27T11:42:09.616Z</time>
      </trkpt>
      <trkpt lat="44.90034" lon="5.12913">
        <ele>531.29</ele>
        <time>2022-02-27T11:42:28.149Z</time>
      </trkpt>
      <trkpt lat="44.90033" lon="5.12929">
        <ele>532.3</ele>
        <time>2022-02-27T11:42:37.717Z</time>
      </trkpt>
      <trkpt lat="44.9003" lon="5.1296">
        <ele>533.55</ele>
        <time>2022-02-27T11:42:56.173Z</time>
      </trkpt>
      <trkpt lat="44.90029" lon="5.12992">
        <ele>535.36</ele>
        <time>2022-02-27T11:43:14.852Z</time>
      </trkpt>
      <trkpt lat="44.90029" lon="5.13008">
        <ele>536.62</ele>
        <time>2022-02-27T11:43:24.351Z</time>
      </trkpt>
      <trkpt lat="44.90026" lon="5.1304">
        <ele>538.57</ele>
        <time>2022-02-27T11:43:42.898Z</time>
      </trkpt>
      <trkpt lat="44.90023" lon="5.13069">
        <ele>540.03</ele>
        <time>2022-02-27T11:44:01.555Z</time>
      </trkpt>
      <trkpt lat="44.9002" lon="5.13085">
        <ele>540.56</ele>
        <time>2022-02-27T11:44:11.614Z</time>
      </trkpt>
      <trkpt lat="44.90022" lon="5.13098">
        <ele>542.84</ele>
        <time>2022-02-27T11:44:52.999Z</time>
      </trkpt>
      <trkpt lat="44.90011" lon="5.13126">
        <ele>541.48</ele>
        <time>2022-02-27T12:27:18.873Z</time>
      </trkpt>
      <trkpt lat="44.9001" lon="5.13138">
        <ele>542.28</ele>
        <time>2022-02-27T12:27:31.439Z</time>
      </trkpt>
      <trkpt lat="44.90002" lon="5.13163">
        <ele>542.11</ele>
        <time>2022-02-27T12:27:51.110Z</time>
      </trkpt>
      <trkpt lat="44.89997" lon="5.13188">
        <ele>543.33</ele>
        <time>2022-02-27T12:28:10.217Z</time>
      </trkpt>
      <trkpt lat="44.89995" lon="5.13202">
        <ele>544.27</ele>
        <time>2022-02-27T12:28:19.776Z</time>
      </trkpt>
      <trkpt lat="44.89992" lon="5.1323">
        <ele>546.09</ele>
        <time>2022-02-27T12:28:39.255Z</time>
      </trkpt>
      <trkpt lat="44.89991" lon="5.13256">
        <ele>548.05</ele>
        <time>2022-02-27T12:28:59.355Z</time>
      </trkpt>
      <trkpt lat="44.89995" lon="5.1327">
        <ele>549.95</ele>
        <time>2022-02-27T12:29:16.710Z</time>
      </trkpt>
      <trkpt lat="44.89996" lon="5.13296">
        <ele>551.78</ele>
        <time>2022-02-27T12:29:58.236Z</time>
      </trkpt>
      <trkpt lat="44.8999" lon="5.13325">
        <ele>551.33</ele>
        <time>2022-02-27T12:30:18.553Z</time>
      </trkpt>
      <trkpt lat="44.89983" lon="5.13335">
        <ele>550.23</ele>
        <time>2022-02-27T12:30:27.772Z</time>
      </trkpt>
      <trkpt lat="44.89968" lon="5.13359">
        <ele>548.72</ele>
        <time>2022-02-27T12:30:46.231Z</time>
      </trkpt>
      <trkpt lat="44.89961" lon="5.13383">
        <ele>549.02</ele>
        <time>2022-02-27T12:31:05.477Z</time>
      </trkpt>
      <trkpt lat="44.89948" lon="5.13403">
        <ele>549.01</ele>
        <time>2022-02-27T12:31:15.415Z</time>
      </trkpt>
      <trkpt lat="44.89934" lon="5.1342">
        <ele>549.25</ele>
        <time>2022-02-27T12:31:38.273Z</time>
      </trkpt>
      <trkpt lat="44.89921" lon="5.1344">
        <ele>549.99</ele>
        <time>2022-02-27T12:31:57.190Z</time>
      </trkpt>
      <trkpt lat="44.89912" lon="5.1345">
        <ele>550.26</ele>
        <time>2022-02-27T12:32:06.289Z</time>
      </trkpt>
      <trkpt lat="44.89888" lon="5.13453">
        <ele>549.7</ele>
        <time>2022-02-27T12:32:24.796Z</time>
      </trkpt>
      <trkpt lat="44.89871" lon="5.1344">
        <ele>548.77</ele>
        <time>2022-02-27T12:32:44.535Z</time>
      </trkpt>
      <trkpt lat="44.8986" lon="5.13442">
        <ele>549.08</ele>
        <time>2022-02-27T12:32:53.673Z</time>
      </trkpt>
      <trkpt lat="44.89838" lon="5.1344">
        <ele>549.59</ele>
        <time>2022-02-27T12:33:19.672Z</time>
      </trkpt>
      <trkpt lat="44.8982" lon="5.1344">
        <ele>550.08</ele>
        <time>2022-02-27T12:33:43.597Z</time>
      </trkpt>
      <trkpt lat="44.89802" lon="5.13438">
        <ele>550.5</ele>
        <time>2022-02-27T12:33:53.554Z</time>
      </trkpt>
      <trkpt lat="44.89794" lon="5.13459">
        <ele>552.3</ele>
        <time>2022-02-27T12:34:12.093Z</time>
      </trkpt>
      <trkpt lat="44.89789" lon="5.13488">
        <ele>554.33</ele>
        <time>2022-02-27T12:34:31.569Z</time>
      </trkpt>
      <trkpt lat="44.89787" lon="5.13502">
        <ele>555.19</ele>
        <time>2022-02-27T12:34:41.769Z</time>
      </trkpt>
      <trkpt lat="44.89782" lon="5.13526">
        <ele>556.6</ele>
        <time>2022-02-27T12:35:02.496Z</time>
      </trkpt>
      <trkpt lat="44.89767" lon="5.13544">
        <ele>558.33</ele>
        <time>2022-02-27T12:35:21.217Z</time>
      </trkpt>
      <trkpt lat="44.8976" lon="5.13556">
        <ele>559.48</ele>
        <time>2022-02-27T12:35:30.740Z</time>
      </trkpt>
      <trkpt lat="44.8975" lon="5.13579">
        <ele>561.8</ele>
        <time>2022-02-27T12:35:50.872Z</time>
      </trkpt>
      <trkpt lat="44.89742" lon="5.13604">
        <ele>564.25</ele>
        <time>2022-02-27T12:36:10.373Z</time>
      </trkpt>
      <trkpt lat="44.89739" lon="5.13616">
        <ele>565.3</ele>
        <time>2022-02-27T12:36:21.569Z</time>
      </trkpt>
      <trkpt lat="44.89732" lon="5.13639">
        <ele>567.74</ele>
        <time>2022-02-27T12:36:42.397Z</time>
      </trkpt>
      <trkpt lat="44.89723" lon="5.13664">
        <ele>570.8</ele>
        <time>2022-02-27T12:37:01.634Z</time>
      </trkpt>
      <trkpt lat="44.89722" lon="5.13677">
        <ele>571.84</ele>
        <time>2022-02-27T12:37:13.577Z</time>
      </trkpt>
      <trkpt lat="44.89712" lon="5.13699">
        <ele>574.86</ele>
        <time>2022-02-27T12:37:35.749Z</time>
      </trkpt>
      <trkpt lat="44.89708" lon="5.13724">
        <ele>576.93</ele>
        <time>2022-02-27T12:37:57.489Z</time>
      </trkpt>
      <trkpt lat="44.89705" lon="5.1374">
        <ele>578.23</ele>
        <time>2022-02-27T12:38:07.798Z</time>
      </trkpt>
      <trkpt lat="44.89704" lon="5.13766">
        <ele>580.19</ele>
        <time>2022-02-27T12:38:29.455Z</time>
      </trkpt>
      <trkpt lat="44.897" lon="5.13793">
        <ele>583.22</ele>
        <time>2022-02-27T12:38:52.312Z</time>
      </trkpt>
      <trkpt lat="44.89698" lon="5.13809">
        <ele>584.81</ele>
        <time>2022-02-27T12:39:01.369Z</time>
      </trkpt>
      <trkpt lat="44.89691" lon="5.13833">
        <ele>587.46</ele>
        <time>2022-02-27T12:39:27.318Z</time>
      </trkpt>
      <trkpt lat="44.89687" lon="5.13858">
        <ele>588.29</ele>
        <time>2022-02-27T12:39:49.596Z</time>
      </trkpt>
      <trkpt lat="44.89684" lon="5.13871">
        <ele>588.52</ele>
        <time>2022-02-27T12:40:01.736Z</time>
      </trkpt>
      <trkpt lat="44.89674" lon="5.13894">
        <ele>589.79</ele>
        <time>2022-02-27T12:40:28.509Z</time>
      </trkpt>
      <trkpt lat="44.89662" lon="5.13917">
        <ele>593.52</ele>
        <time>2022-02-27T12:40:50.398Z</time>
      </trkpt>
      <trkpt lat="44.89658" lon="5.13929">
        <ele>595.61</ele>
        <time>2022-02-27T12:41:06.396Z</time>
      </trkpt>
      <trkpt lat="44.89647" lon="5.13951">
        <ele>602.22</ele>
        <time>2022-02-27T12:41:26.495Z</time>
      </trkpt>
      <trkpt lat="44.89643" lon="5.13976">
        <ele>606.68</ele>
        <time>2022-02-27T12:41:49.999Z</time>
      </trkpt>
      <trkpt lat="44.89638" lon="5.13988">
        <ele>609.9</ele>
        <time>2022-02-27T12:42:01.751Z</time>
      </trkpt>
      <trkpt lat="44.89633" lon="5.14015">
        <ele>613.6</ele>
        <time>2022-02-27T12:42:24.329Z</time>
      </trkpt>
      <trkpt lat="44.89628" lon="5.14041">
        <ele>616.23</ele>
        <time>2022-02-27T12:42:45.999Z</time>
      </trkpt>
      <trkpt lat="44.89628" lon="5.14055">
        <ele>616.6</ele>
        <time>2022-02-27T12:42:59.734Z</time>
      </trkpt>
      <trkpt lat="44.89627" lon="5.14082">
        <ele>617.9</ele>
        <time>2022-02-27T12:43:19.769Z</time>
      </trkpt>
      <trkpt lat="44.89625" lon="5.14108">
        <ele>619.9</ele>
        <time>2022-02-27T12:43:40.889Z</time>
      </trkpt>
      <trkpt lat="44.89629" lon="5.14123">
        <ele>620.05</ele>
        <time>2022-02-27T12:43:50.748Z</time>
      </trkpt>
      <trkpt lat="44.89635" lon="5.14147">
        <ele>620.35</ele>
        <time>2022-02-27T12:44:13.916Z</time>
      </trkpt>
      <trkpt lat="44.89637" lon="5.14173">
        <ele>622.51</ele>
        <time>2022-02-27T12:44:39.196Z</time>
      </trkpt>
      <trkpt lat="44.89638" lon="5.14186">
        <ele>623.79</ele>
        <time>2022-02-27T12:44:49.034Z</time>
      </trkpt>
      <trkpt lat="44.89636" lon="5.14211">
        <ele>628.36</ele>
        <time>2022-02-27T12:45:11.032Z</time>
      </trkpt>
      <trkpt lat="44.89642" lon="5.14235">
        <ele>630.04</ele>
        <time>2022-02-27T12:45:30.839Z</time>
      </trkpt>
      <trkpt lat="44.89646" lon="5.14247">
        <ele>630.72</ele>
        <time>2022-02-27T12:45:41.678Z</time>
      </trkpt>
      <trkpt lat="44.89651" lon="5.14273">
        <ele>633.08</ele>
        <time>2022-02-27T12:46:02.534Z</time>
      </trkpt>
      <trkpt lat="44.89653" lon="5.14299">
        <ele>636.59</ele>
        <time>2022-02-27T12:46:26.511Z</time>
      </trkpt>
      <trkpt lat="44.8966" lon="5.1431">
        <ele>637</ele>
        <time>2022-02-27T12:46:36.853Z</time>
      </trkpt>
      <trkpt lat="44.89669" lon="5.14333">
        <ele>639.7</ele>
        <time>2022-02-27T12:47:01.718Z</time>
      </trkpt>
      <trkpt lat="44.89674" lon="5.14357">
        <ele>643.57</ele>
        <time>2022-02-27T12:47:23.235Z</time>
      </trkpt>
      <trkpt lat="44.8968" lon="5.14367">
        <ele>645.39</ele>
        <time>2022-02-27T12:47:37.771Z</time>
      </trkpt>
      <trkpt lat="44.89686" lon="5.14392">
        <ele>650.03</ele>
        <time>2022-02-27T12:48:01.898Z</time>
      </trkpt>
      <trkpt lat="44.89687" lon="5.14418">
        <ele>654.74</ele>
        <time>2022-02-27T12:48:30.333Z</time>
      </trkpt>
      <trkpt lat="44.89686" lon="5.14435">
        <ele>657.51</ele>
        <time>2022-02-27T12:48:40.000Z</time>
      </trkpt>
      <trkpt lat="44.89684" lon="5.14461">
        <ele>661.59</ele>
        <time>2022-02-27T12:49:05.498Z</time>
      </trkpt>
      <trkpt lat="44.89682" lon="5.14487">
        <ele>666.6</ele>
        <time>2022-02-27T12:49:33.000Z</time>
      </trkpt>
      <trkpt lat="44.89677" lon="5.14498">
        <ele>669.01</ele>
        <time>2022-02-27T12:49:53.452Z</time>
      </trkpt>
      <trkpt lat="44.89672" lon="5.14528">
        <ele>686.1</ele>
        <time>2022-02-27T12:50:53.281Z</time>
      </trkpt>
      <trkpt lat="44.89667" lon="5.14556">
        <ele>694.2</ele>
        <time>2022-02-27T12:51:16.290Z</time>
      </trkpt>
      <trkpt lat="44.89661" lon="5.14574">
        <ele>700.1</ele>
      </trkpt>
      <trkpt lat="44.89664" lon="5.14596">
        <ele>705.6</ele>
        <time>2022-02-27T12:55:11.775Z</time>
      </trkpt>
      <trkpt lat="44.89669" lon="5.14617">
        <ele>710.8</ele>
        <time>2022-02-27T12:55:26.452Z</time>
      </trkpt>
      <trkpt lat="44.89683" lon="5.14643">
        <ele>718.7</ele>
        <time>2022-02-27T12:55:49.999Z</time>
      </trkpt>
      <trkpt lat="44.89696" lon="5.14648">
        <ele>722.1</ele>
      </trkpt>
      <trkpt lat="44.89711" lon="5.14661">
        <ele>727.56</ele>
        <time>2022-02-27T13:20:21.532Z</time>
      </trkpt>
      <trkpt lat="44.89711" lon="5.14648">
        <ele>724.66</ele>
        <time>2022-02-27T13:20:31.329Z</time>
      </trkpt>
      <trkpt lat="44.89727" lon="5.14635">
        <ele>727.83</ele>
        <time>2022-02-27T13:21:08.999Z</time>
      </trkpt>
      <trkpt lat="44.89733" lon="5.14612">
        <ele>725.49</ele>
        <time>2022-02-27T13:22:54.000Z</time>
      </trkpt>
      <trkpt lat="44.8973" lon="5.146">
        <ele>721.46</ele>
        <time>2022-02-27T13:23:53.077Z</time>
      </trkpt>
      <trkpt lat="44.89721" lon="5.14578">
        <ele>710.63</ele>
        <time>2022-02-27T13:25:02.558Z</time>
      </trkpt>
      <trkpt lat="44.89717" lon="5.14557">
        <ele>700.39</ele>
        <time>2022-02-27T13:25:54.472Z</time>
      </trkpt>
      <trkpt lat="44.89725" lon="5.14548">
        <ele>699.08</ele>
        <time>2022-02-27T13:26:12.110Z</time>
      </trkpt>
      <trkpt lat="44.89738" lon="5.14533">
        <ele>696.47</ele>
        <time>2022-02-27T13:26:30.637Z</time>
      </trkpt>
      <trkpt lat="44.89721" lon="5.1454">
        <ele>693.5</ele>
        <time>2022-02-27T13:27:33.000Z</time>
      </trkpt>
      <trkpt lat="44.89711" lon="5.14547">
        <ele>693.77</ele>
        <time>2022-02-27T13:28:46.000Z</time>
      </trkpt>
      <trkpt lat="44.8971" lon="5.14524">
        <ele>682.54</ele>
        <time>2022-02-27T13:29:29.110Z</time>
      </trkpt>
      <trkpt lat="44.89698" lon="5.14509">
        <ele>674.32</ele>
        <time>2022-02-27T13:30:14.394Z</time>
      </trkpt>
      <trkpt lat="44.89694" lon="5.14498">
        <ele>670.25</ele>
        <time>2022-02-27T13:30:24.611Z</time>
      </trkpt>
      <trkpt lat="44.89693" lon="5.14479">
        <ele>665.61</ele>
        <time>2022-02-27T13:32:27.680Z</time>
      </trkpt>
      <trkpt lat="44.8971" lon="5.1446">
        <ele>664.39</ele>
        <time>2022-02-27T13:33:10.999Z</time>
      </trkpt>
      <trkpt lat="44.89714" lon="5.14449">
        <ele>663.46</ele>
        <time>2022-02-27T13:33:44.839Z</time>
      </trkpt>
      <trkpt lat="44.89716" lon="5.14454">
        <ele>664.85</ele>
        <time>2022-02-27T13:34:41.999Z</time>
      </trkpt>
      <trkpt lat="44.89707" lon="5.14479">
        <ele>667.63</ele>
        <time>2022-02-27T13:35:12.831Z</time>
      </trkpt>
      <trkpt lat="44.89702" lon="5.14489">
        <ele>669.14</ele>
        <time>2022-02-27T13:35:42.849Z</time>
      </trkpt>
      <trkpt lat="44.89723" lon="5.14478">
        <ele>671.19</ele>
        <time>2022-02-27T13:36:22.554Z</time>
      </trkpt>
      <trkpt lat="44.89741" lon="5.14472">
        <ele>675.46</ele>
        <time>2022-02-27T13:36:46.270Z</time>
      </trkpt>
      <trkpt lat="44.89749" lon="5.14464">
        <ele>676.69</ele>
        <time>2022-02-27T13:37:01.469Z</time>
      </trkpt>
      <trkpt lat="44.89764" lon="5.14448">
        <ele>680.8</ele>
        <time>2022-02-27T13:37:50.116Z</time>
      </trkpt>
      <trkpt lat="44.89772" lon="5.14421">
        <ele>681.7</ele>
        <time>2022-02-27T13:38:09.843Z</time>
      </trkpt>
      <trkpt lat="44.89776" lon="5.14408">
        <ele>681.52</ele>
        <time>2022-02-27T13:38:19.737Z</time>
      </trkpt>
      <trkpt lat="44.89784" lon="5.14373">
        <ele>678.58</ele>
        <time>2022-02-27T13:38:44.437Z</time>
      </trkpt>
      <trkpt lat="44.89803" lon="5.14348">
        <ele>682.32</ele>
        <time>2022-02-27T13:39:03.571Z</time>
      </trkpt>
      <trkpt lat="44.89811" lon="5.14343">
        <ele>685.25</ele>
        <time>2022-02-27T13:39:12.850Z</time>
      </trkpt>
      <trkpt lat="44.8983" lon="5.14331">
        <ele>689.94</ele>
        <time>2022-02-27T13:39:48.335Z</time>
      </trkpt>
      <trkpt lat="44.89848" lon="5.14308">
        <ele>689.69</ele>
        <time>2022-02-27T13:40:06.793Z</time>
      </trkpt>
      <trkpt lat="44.89857" lon="5.14313">
        <ele>693.6</ele>
        <time>2022-02-27T13:40:17.773Z</time>
      </trkpt>
      <trkpt lat="44.89871" lon="5.14298">
        <ele>694.25</ele>
        <time>2022-02-27T13:41:26.000Z</time>
      </trkpt>
      <trkpt lat="44.89864" lon="5.14273">
        <ele>686.73</ele>
        <time>2022-02-27T13:41:56.411Z</time>
      </trkpt>
      <trkpt lat="44.89859" lon="5.14263">
        <ele>682.61</ele>
        <time>2022-02-27T13:42:14.857Z</time>
      </trkpt>
      <trkpt lat="44.89854" lon="5.14239">
        <ele>676.02</ele>
        <time>2022-02-27T13:42:36.517Z</time>
      </trkpt>
      <trkpt lat="44.89867" lon="5.14218">
        <ele>678.44</ele>
        <time>2022-02-27T13:42:58.136Z</time>
      </trkpt>
      <trkpt lat="44.89871" lon="5.14205">
        <ele>678.83</ele>
        <time>2022-02-27T13:43:07.196Z</time>
      </trkpt>
      <trkpt lat="44.89881" lon="5.14178">
        <ele>681.25</ele>
        <time>2022-02-27T13:43:29.592Z</time>
      </trkpt>
      <trkpt lat="44.89892" lon="5.14152">
        <ele>683.91</ele>
        <time>2022-02-27T13:43:48.678Z</time>
      </trkpt>
      <trkpt lat="44.89897" lon="5.14141">
        <ele>685.26</ele>
        <time>2022-02-27T13:44:04.000Z</time>
      </trkpt>
      <trkpt lat="44.89908" lon="5.14113">
        <ele>687.07</ele>
        <time>2022-02-27T13:44:23.178Z</time>
      </trkpt>
      <trkpt lat="44.89923" lon="5.14089">
        <ele>687.88</ele>
        <time>2022-02-27T13:44:41.538Z</time>
      </trkpt>
      <trkpt lat="44.89931" lon="5.14083">
        <ele>688.45</ele>
        <time>2022-02-27T13:44:51.612Z</time>
      </trkpt>
      <trkpt lat="44.89952" lon="5.14082">
        <ele>691.99</ele>
        <time>2022-02-27T13:45:10.749Z</time>
      </trkpt>
      <trkpt lat="44.89969" lon="5.14092">
        <ele>697.72</ele>
        <time>2022-02-27T13:45:34.518Z</time>
      </trkpt>
      <trkpt lat="44.89978" lon="5.14088">
        <ele>697.27</ele>
        <time>2022-02-27T13:45:48.696Z</time>
      </trkpt>
      <trkpt lat="44.89993" lon="5.1407">
        <ele>693.76</ele>
        <time>2022-02-27T13:46:07.593Z</time>
      </trkpt>
      <trkpt lat="44.90004" lon="5.14047">
        <ele>688.84</ele>
        <time>2022-02-27T13:46:35.593Z</time>
      </trkpt>
      <trkpt lat="44.9001" lon="5.14035">
        <ele>686.61</ele>
        <time>2022-02-27T13:46:44.694Z</time>
      </trkpt>
      <trkpt lat="44.90021" lon="5.14015">
        <ele>683.23</ele>
        <time>2022-02-27T13:47:05.376Z</time>
      </trkpt>
      <trkpt lat="44.90039" lon="5.14015">
        <ele>687.61</ele>
        <time>2022-02-27T13:47:33.536Z</time>
      </trkpt>
      <trkpt lat="44.90049" lon="5.14005">
        <ele>686.58</ele>
        <time>2022-02-27T13:47:43.733Z</time>
      </trkpt>
      <trkpt lat="44.90067" lon="5.14005">
        <ele>690.81</ele>
        <time>2022-02-27T13:48:06.754Z</time>
      </trkpt>
      <trkpt lat="44.90085" lon="5.13995">
        <ele>691.65</ele>
        <time>2022-02-27T13:48:25.880Z</time>
      </trkpt>
      <trkpt lat="44.90094" lon="5.13993">
        <ele>693.05</ele>
        <time>2022-02-27T13:48:35.997Z</time>
      </trkpt>
      <trkpt lat="44.9011" lon="5.13972">
        <ele>690.03</ele>
        <time>2022-02-27T13:48:56.196Z</time>
      </trkpt>
      <trkpt lat="44.90127" lon="5.13964">
        <ele>692.23</ele>
        <time>2022-02-27T13:49:18.133Z</time>
      </trkpt>
      <trkpt lat="44.90136" lon="5.1397">
        <ele>697.22</ele>
        <time>2022-02-27T13:49:28.192Z</time>
      </trkpt>
      <trkpt lat="44.90155" lon="5.13961">
        <ele>700.38</ele>
        <time>2022-02-27T13:49:47.790Z</time>
      </trkpt>
      <trkpt lat="44.90162" lon="5.13934">
        <ele>695.52</ele>
        <time>2022-02-27T13:50:08.258Z</time>
      </trkpt>
      <trkpt lat="44.90171" lon="5.13928">
        <ele>696.84</ele>
        <time>2022-02-27T13:50:18.999Z</time>
      </trkpt>
      <trkpt lat="44.90186" lon="5.13919">
        <ele>700.3</ele>
        <time>2022-02-27T13:50:46.549Z</time>
      </trkpt>
      <trkpt lat="44.90193" lon="5.1389">
        <ele>698.18</ele>
        <time>2022-02-27T13:51:13.609Z</time>
      </trkpt>
      <trkpt lat="44.90199" lon="5.13872">
        <ele>698.18</ele>
        <time>2022-02-27T13:51:23.692Z</time>
      </trkpt>
      <trkpt lat="44.90213" lon="5.13847">
        <ele>698.29</ele>
        <time>2022-02-27T13:51:42.636Z</time>
      </trkpt>
      <trkpt lat="44.90231" lon="5.13851">
        <ele>701.36</ele>
        <time>2022-02-27T13:52:08.097Z</time>
      </trkpt>
      <trkpt lat="44.90243" lon="5.13855">
        <ele>703.18</ele>
        <time>2022-02-27T13:52:17.675Z</time>
      </trkpt>
      <trkpt lat="44.90268" lon="5.13859">
        <ele>703.35</ele>
        <time>2022-02-27T13:52:36.851Z</time>
      </trkpt>
      <trkpt lat="44.90288" lon="5.13862">
        <ele>701.13</ele>
        <time>2022-02-27T13:52:56.991Z</time>
      </trkpt>
      <trkpt lat="44.90295" lon="5.13873">
        <ele>702.95</ele>
        <time>2022-02-27T13:53:06.089Z</time>
      </trkpt>
      <trkpt lat="44.90309" lon="5.13892">
        <ele>707.77</ele>
        <time>2022-02-27T13:53:29.556Z</time>
      </trkpt>
      <trkpt lat="44.90328" lon="5.13872">
        <ele>698.07</ele>
        <time>2022-02-27T13:53:48.333Z</time>
      </trkpt>
      <trkpt lat="44.90336" lon="5.13865">
        <ele>695.06</ele>
        <time>2022-02-27T13:53:58.293Z</time>
      </trkpt>
      <trkpt lat="44.90354" lon="5.13872">
        <ele>698.29</ele>
        <time>2022-02-27T13:54:17.390Z</time>
      </trkpt>
      <trkpt lat="44.9036" lon="5.13862">
        <ele>695.38</ele>
        <time>2022-02-27T13:54:38.396Z</time>
      </trkpt>
      <trkpt lat="44.90377" lon="5.13855">
        <ele>695.02</ele>
        <time>2022-02-27T13:55:00.598Z</time>
      </trkpt>
      <trkpt lat="44.90397" lon="5.1385">
        <ele>696.25</ele>
        <time>2022-02-27T13:55:23.356Z</time>
      </trkpt>
      <trkpt lat="44.90407" lon="5.13847">
        <ele>696.17</ele>
        <time>2022-02-27T13:55:32.416Z</time>
      </trkpt>
      <trkpt lat="44.90426" lon="5.13839">
        <ele>694.59</ele>
        <time>2022-02-27T13:55:51.852Z</time>
      </trkpt>
      <trkpt lat="44.90446" lon="5.13847">
        <ele>695.84</ele>
        <time>2022-02-27T13:56:12.370Z</time>
      </trkpt>
      <trkpt lat="44.90457" lon="5.13846">
        <ele>694.98</ele>
        <time>2022-02-27T13:56:39.136Z</time>
      </trkpt>
      <trkpt lat="44.90474" lon="5.13836">
        <ele>690.67</ele>
        <time>2022-02-27T13:57:05.196Z</time>
      </trkpt>
      <trkpt lat="44.90491" lon="5.13844">
        <ele>691.35</ele>
        <time>2022-02-27T13:57:33.612Z</time>
      </trkpt>
      <trkpt lat="44.90502" lon="5.13845">
        <ele>690.99</ele>
        <time>2022-02-27T13:58:05.659Z</time>
      </trkpt>
      <trkpt lat="44.90528" lon="5.13849">
        <ele>689.88</ele>
        <time>2022-02-27T13:58:52.000Z</time>
      </trkpt>
      <trkpt lat="44.9055" lon="5.13857">
        <ele>690.14</ele>
        <time>2022-02-27T14:01:31.410Z</time>
      </trkpt>
      <trkpt lat="44.90566" lon="5.13861">
        <ele>690.06</ele>
        <time>2022-02-27T14:01:40.711Z</time>
      </trkpt>
      <trkpt lat="44.9059" lon="5.1387">
        <ele>690.7</ele>
        <time>2022-02-27T14:01:59.699Z</time>
      </trkpt>
      <trkpt lat="44.9061" lon="5.13878">
        <ele>691.89</ele>
        <time>2022-02-27T14:02:18.557Z</time>
      </trkpt>
      <trkpt lat="44.9062" lon="5.13881">
        <ele>692.27</ele>
        <time>2022-02-27T14:02:34.255Z</time>
      </trkpt>
      <trkpt lat="44.90647" lon="5.13884">
        <ele>691.86</ele>
        <time>2022-02-27T14:02:52.693Z</time>
      </trkpt>
      <trkpt lat="44.90674" lon="5.139">
        <ele>695</ele>
        <time>2022-02-27T14:03:38.776Z</time>
      </trkpt>
      <trkpt lat="44.9069" lon="5.13902">
        <ele>695.46</ele>
        <time>2022-02-27T14:03:48.519Z</time>
      </trkpt>
      <trkpt lat="44.90712" lon="5.13924">
        <ele>700.81</ele>
        <time>2022-02-27T14:04:19.492Z</time>
      </trkpt>
      <trkpt lat="44.90729" lon="5.13969">
        <ele>711.36</ele>
        <time>2022-02-27T14:05:23.156Z</time>
      </trkpt>
      <trkpt lat="44.9074" lon="5.13995">
        <ele>717.1</ele>
        <time>2022-02-27T14:05:33.758Z</time>
      </trkpt>
      <trkpt lat="44.90753" lon="5.14018">
        <ele>721.35</ele>
        <time>2022-02-27T14:06:02.508Z</time>
      </trkpt>
      <trkpt lat="44.90759" lon="5.14046">
        <ele>728.24</ele>
        <time>2022-02-27T14:06:21.576Z</time>
      </trkpt>
      <trkpt lat="44.90777" lon="5.1406">
        <ele>728.84</ele>
        <time>2022-02-27T14:07:05.193Z</time>
      </trkpt>
      <trkpt lat="44.90791" lon="5.14084">
        <ele>734.81</ele>
        <time>2022-02-27T14:07:36.499Z</time>
      </trkpt>
      <trkpt lat="44.90808" lon="5.14093">
        <ele>735.94</ele>
        <time>2022-02-27T14:10:15.999Z</time>
      </trkpt>
      <trkpt lat="44.90831" lon="5.141">
        <ele>736.76</ele>
        <time>2022-02-27T14:12:56.509Z</time>
      </trkpt>
      <trkpt lat="44.90852" lon="5.14094">
        <ele>734.98</ele>
        <time>2022-02-27T14:13:19.437Z</time>
      </trkpt>
      <trkpt lat="44.90872" lon="5.14069">
        <ele>727.37</ele>
        <time>2022-02-27T14:13:39.574Z</time>
      </trkpt>
      <trkpt lat="44.90895" lon="5.14059">
        <ele>727.65</ele>
        <time>2022-02-27T14:14:22.189Z</time>
      </trkpt>
      <trkpt lat="44.90916" lon="5.14039">
        <ele>723.68</ele>
        <time>2022-02-27T14:14:42.349Z</time>
      </trkpt>
      <trkpt lat="44.90929" lon="5.14016">
        <ele>717.35</ele>
        <time>2022-02-27T14:15:02.638Z</time>
      </trkpt>
      <trkpt lat="44.90936" lon="5.14002">
        <ele>713.67</ele>
        <time>2022-02-27T14:15:12.596Z</time>
      </trkpt>
      <trkpt lat="44.90947" lon="5.13973">
        <ele>705.21</ele>
        <time>2022-02-27T14:15:32.174Z</time>
      </trkpt>
      <trkpt lat="44.90958" lon="5.13952">
        <ele>698.37</ele>
        <time>2022-02-27T14:15:55.172Z</time>
      </trkpt>
      <trkpt lat="44.90962" lon="5.13939">
        <ele>694.02</ele>
        <time>2022-02-27T14:16:08.000Z</time>
      </trkpt>
      <trkpt lat="44.9097" lon="5.13912">
        <ele>685.36</ele>
        <time>2022-02-27T14:16:38.195Z</time>
      </trkpt>
      <trkpt lat="44.90969" lon="5.13886">
        <ele>678.97</ele>
        <time>2022-02-27T14:17:02.616Z</time>
      </trkpt>
      <trkpt lat="44.90973" lon="5.13875">
        <ele>676.67</ele>
        <time>2022-02-27T14:17:17.716Z</time>
      </trkpt>
      <trkpt lat="44.90991" lon="5.13866">
        <ele>674.59</ele>
        <time>2022-02-27T14:17:38.453Z</time>
      </trkpt>
      <trkpt lat="44.91008" lon="5.13856">
        <ele>669.56</ele>
        <time>2022-02-27T14:18:02.000Z</time>
      </trkpt>
      <trkpt lat="44.91013" lon="5.13845">
        <ele>665.91</ele>
        <time>2022-02-27T14:18:17.859Z</time>
      </trkpt>
      <trkpt lat="44.91011" lon="5.13818">
        <ele>660.63</ele>
        <time>2022-02-27T14:18:52.653Z</time>
      </trkpt>
      <trkpt lat="44.91025" lon="5.13799">
        <ele>650.16</ele>
        <time>2022-02-27T14:19:20.770Z</time>
      </trkpt>
      <trkpt lat="44.9103" lon="5.13787">
        <ele>644.99</ele>
        <time>2022-02-27T14:19:31.596Z</time>
      </trkpt>
      <trkpt lat="44.91037" lon="5.13768">
        <ele>637.07</ele>
        <time>2022-02-27T14:19:56.313Z</time>
      </trkpt>
      <trkpt lat="44.91038" lon="5.13742">
        <ele>631.93</ele>
        <time>2022-02-27T14:20:23.770Z</time>
      </trkpt>
      <trkpt lat="44.91045" lon="5.13718">
        <ele>627.79</ele>
        <time>2022-02-27T14:23:43.090Z</time>
      </trkpt>
      <trkpt lat="44.91049" lon="5.13692">
        <ele>626.3</ele>
        <time>2022-02-27T14:24:04.796Z</time>
      </trkpt>
      <trkpt lat="44.91047" lon="5.13659">
        <ele>623.78</ele>
        <time>2022-02-27T14:24:26.840Z</time>
      </trkpt>
      <trkpt lat="44.91049" lon="5.13644">
        <ele>623.22</ele>
        <time>2022-02-27T14:24:36.217Z</time>
      </trkpt>
      <trkpt lat="44.91042" lon="5.13618">
        <ele>618.43</ele>
        <time>2022-02-27T14:25:00.552Z</time>
      </trkpt>
      <trkpt lat="44.91044" lon="5.13589">
        <ele>615.48</ele>
        <time>2022-02-27T14:25:22.641Z</time>
      </trkpt>
      <trkpt lat="44.91041" lon="5.13575">
        <ele>612.78</ele>
        <time>2022-02-27T14:25:31.999Z</time>
      </trkpt>
      <trkpt lat="44.91042" lon="5.13547">
        <ele>609.4</ele>
        <time>2022-02-27T14:25:55.616Z</time>
      </trkpt>
      <trkpt lat="44.91042" lon="5.13521">
        <ele>605.31</ele>
        <time>2022-02-27T14:26:15.851Z</time>
      </trkpt>
      <trkpt lat="44.91043" lon="5.13508">
        <ele>603.71</ele>
        <time>2022-02-27T14:26:27.451Z</time>
      </trkpt>
      <trkpt lat="44.91045" lon="5.13478">
        <ele>599.76</ele>
        <time>2022-02-27T14:26:47.051Z</time>
      </trkpt>
      <trkpt lat="44.91039" lon="5.13447">
        <ele>593.76</ele>
        <time>2022-02-27T14:27:05.349Z</time>
      </trkpt>
      <trkpt lat="44.91039" lon="5.13433">
        <ele>591.79</ele>
        <time>2022-02-27T14:27:14.999Z</time>
      </trkpt>
      <trkpt lat="44.91045" lon="5.13407">
        <ele>589.48</ele>
        <time>2022-02-27T14:27:34.287Z</time>
      </trkpt>
      <trkpt lat="44.91044" lon="5.1338">
        <ele>586.37</ele>
        <time>2022-02-27T14:28:03.093Z</time>
      </trkpt>
      <trkpt lat="44.91047" lon="5.13368">
        <ele>585.39</ele>
        <time>2022-02-27T14:28:12.112Z</time>
      </trkpt>
      <trkpt lat="44.91054" lon="5.13339">
        <ele>582.63</ele>
        <time>2022-02-27T14:28:31.289Z</time>
      </trkpt>
      <trkpt lat="44.91057" lon="5.13309">
        <ele>579.31</ele>
        <time>2022-02-27T14:28:50.094Z</time>
      </trkpt>
      <trkpt lat="44.91059" lon="5.13296">
        <ele>577.86</ele>
        <time>2022-02-27T14:29:01.999Z</time>
      </trkpt>
      <trkpt lat="44.91061" lon="5.13265">
        <ele>574.35</ele>
        <time>2022-02-27T14:29:23.100Z</time>
      </trkpt>
      <trkpt lat="44.91068" lon="5.13237">
        <ele>570.75</ele>
        <time>2022-02-27T14:29:43.572Z</time>
      </trkpt>
      <trkpt lat="44.91069" lon="5.13221">
        <ele>568.83</ele>
        <time>2022-02-27T14:29:52.732Z</time>
      </trkpt>
      <trkpt lat="44.91079" lon="5.13199">
        <ele>565.85</ele>
        <time>2022-02-27T14:30:17.599Z</time>
      </trkpt>
      <trkpt lat="44.91082" lon="5.13166">
        <ele>561.9</ele>
        <time>2022-02-27T14:30:36.077Z</time>
      </trkpt>
      <trkpt lat="44.91084" lon="5.1315">
        <ele>560.11</ele>
        <time>2022-02-27T14:30:46.096Z</time>
      </trkpt>
      <trkpt lat="44.91085" lon="5.1312">
        <ele>556.75</ele>
        <time>2022-02-27T14:31:06.832Z</time>
      </trkpt>
      <trkpt lat="44.9109" lon="5.13092">
        <ele>553.69</ele>
        <time>2022-02-27T14:31:28.220Z</time>
      </trkpt>
      <trkpt lat="44.9109" lon="5.13073">
        <ele>551.87</ele>
        <time>2022-02-27T14:31:37.717Z</time>
      </trkpt>
      <trkpt lat="44.9109" lon="5.1304">
        <ele>549.06</ele>
        <time>2022-02-27T14:31:56.615Z</time>
      </trkpt>
      <trkpt lat="44.91089" lon="5.1301">
        <ele>546.61</ele>
        <time>2022-02-27T14:32:17.233Z</time>
      </trkpt>
      <trkpt lat="44.91091" lon="5.12997">
        <ele>545.27</ele>
        <time>2022-02-27T14:32:26.350Z</time>
      </trkpt>
      <trkpt lat="44.91092" lon="5.12965">
        <ele>541.91</ele>
        <time>2022-02-27T14:32:45.798Z</time>
      </trkpt>
      <trkpt lat="44.91091" lon="5.12934">
        <ele>538.59</ele>
        <time>2022-02-27T14:33:05.753Z</time>
      </trkpt>
      <trkpt lat="44.91089" lon="5.12918">
        <ele>536.88</ele>
        <time>2022-02-27T14:33:14.999Z</time>
      </trkpt>
      <trkpt lat="44.91084" lon="5.12893">
        <ele>534.09</ele>
        <time>2022-02-27T14:33:33.950Z</time>
      </trkpt>
      <trkpt lat="44.91077" lon="5.12862">
        <ele>530.32</ele>
        <time>2022-02-27T14:33:52.836Z</time>
      </trkpt>
      <trkpt lat="44.91074" lon="5.12847">
        <ele>528.51</ele>
        <time>2022-02-27T14:34:02.032Z</time>
      </trkpt>
      <trkpt lat="44.91085" lon="5.12817">
        <ele>525.29</ele>
        <time>2022-02-27T14:34:25.789Z</time>
      </trkpt>
      <trkpt lat="44.91093" lon="5.12793">
        <ele>522.96</ele>
        <time>2022-02-27T14:34:47.428Z</time>
      </trkpt>
      <trkpt lat="44.91096" lon="5.12777">
        <ele>521.68</ele>
        <time>2022-02-27T14:34:56.534Z</time>
      </trkpt>
      <trkpt lat="44.91104" lon="5.12746">
        <ele>519.73</ele>
        <time>2022-02-27T14:35:15.375Z</time>
      </trkpt>
      <trkpt lat="44.91079" lon="5.12712">
        <ele>519.67</ele>
        <time>2022-02-27T14:37:26.371Z</time>
      </trkpt>
      <trkpt lat="44.91072" lon="5.127">
        <ele>519.01</ele>
        <time>2022-02-27T14:37:36.000Z</time>
      </trkpt>
      <trkpt lat="44.91069" lon="5.12665">
        <ele>518.76</ele>
        <time>2022-02-27T14:39:26.651Z</time>
      </trkpt>
      <trkpt lat="44.91076" lon="5.12641">
        <ele>518.91</ele>
        <time>2022-02-27T14:39:46.271Z</time>
      </trkpt>
      <trkpt lat="44.91085" lon="5.12641">
        <ele>519.69</ele>
        <time>2022-02-27T14:40:03.698Z</time>
      </trkpt>
      <trkpt lat="44.911" lon="5.12619">
        <ele>518.06</ele>
        <time>2022-02-27T14:40:25.896Z</time>
      </trkpt>
      <trkpt lat="44.91107" lon="5.12594">
        <ele>517.69</ele>
        <time>2022-02-27T14:40:45.693Z</time>
      </trkpt>
      <trkpt lat="44.91107" lon="5.12581">
        <ele>518.81</ele>
        <time>2022-02-27T14:40:55.770Z</time>
      </trkpt>
      <trkpt lat="44.91104" lon="5.12554">
        <ele>523.23</ele>
        <time>2022-02-27T14:41:31.398Z</time>
      </trkpt>
      <trkpt lat="44.91089" lon="5.12537">
        <ele>527.16</ele>
        <time>2022-02-27T14:41:51.176Z</time>
      </trkpt>
      <trkpt lat="44.91078" lon="5.12534">
        <ele>527.82</ele>
        <time>2022-02-27T14:42:00.654Z</time>
      </trkpt>
      <trkpt lat="44.91059" lon="5.12533">
        <ele>526.42</ele>
        <time>2022-02-27T14:42:19.454Z</time>
      </trkpt>
      <trkpt lat="44.91038" lon="5.12533">
        <ele>523.78</ele>
        <time>2022-02-27T14:42:39.452Z</time>
      </trkpt>
      <trkpt lat="44.91029" lon="5.12534">
        <ele>522.32</ele>
        <time>2022-02-27T14:43:52.932Z</time>
      </trkpt>
      <trkpt lat="44.91009" lon="5.12539">
        <ele>518.33</ele>
        <time>2022-02-27T14:44:42.259Z</time>
      </trkpt>
      <trkpt lat="44.90991" lon="5.12546">
        <ele>514.2</ele>
        <time>2022-02-27T14:45:00.856Z</time>
      </trkpt>
      <trkpt lat="44.90981" lon="5.12549">
        <ele>512.26</ele>
        <time>2022-02-27T14:45:13.440Z</time>
      </trkpt>
      <trkpt lat="44.90959" lon="5.12553">
        <ele>508.41</ele>
        <time>2022-02-27T14:45:32.653Z</time>
      </trkpt>
      <trkpt lat="44.90959" lon="5.12527">
        <ele>513.85</ele>
        <time>2022-02-27T14:46:15.559Z</time>
      </trkpt>
      <trkpt lat="44.90962" lon="5.12515">
        <ele>517.48</ele>
        <time>2022-02-27T14:46:32.834Z</time>
      </trkpt>
      <trkpt lat="44.90951" lon="5.12494">
        <ele>522.13</ele>
        <time>2022-02-27T14:47:04.332Z</time>
      </trkpt>
      <trkpt lat="44.90942" lon="5.1247">
        <ele>530.36</ele>
        <time>2022-02-27T14:47:29.712Z</time>
      </trkpt>
      <trkpt lat="44.90937" lon="5.12459">
        <ele>534.46</ele>
        <time>2022-02-27T14:47:42.357Z</time>
      </trkpt>
      <trkpt lat="44.90924" lon="5.12441">
        <ele>538.45</ele>
        <time>2022-02-27T14:48:07.999Z</time>
      </trkpt>
      <trkpt lat="44.90915" lon="5.12419">
        <ele>543.93</ele>
        <time>2022-02-27T14:48:43.861Z</time>
      </trkpt>
      <trkpt lat="44.9091" lon="5.12408">
        <ele>545.31</ele>
        <time>2022-02-27T14:48:57.851Z</time>
      </trkpt>
      <trkpt lat="44.90897" lon="5.1239">
        <ele>547.21</ele>
        <time>2022-02-27T14:49:20.550Z</time>
      </trkpt>
      <trkpt lat="44.90893" lon="5.12361">
        <ele>554.02</ele>
        <time>2022-02-27T14:51:26.742Z</time>
      </trkpt>
      <trkpt lat="44.90904" lon="5.1236">
        <ele>555.82</ele>
        <time>2022-02-27T14:51:36.773Z</time>
      </trkpt>
      <trkpt lat="44.90922" lon="5.12369">
        <ele>557.38</ele>
        <time>2022-02-27T14:52:11.513Z</time>
      </trkpt>
      <trkpt lat="44.9094" lon="5.12379">
        <ele>559.8</ele>
        <time>2022-02-27T14:53:11.474Z</time>
      </trkpt>
      <trkpt lat="44.90949" lon="5.12384">
        <ele>561.05</ele>
        <time>2022-02-27T14:53:20.893Z</time>
      </trkpt>
      <trkpt lat="44.90967" lon="5.12385">
        <ele>564.99</ele>
        <time>2022-02-27T14:53:44.497Z</time>
      </trkpt>
      <trkpt lat="44.90986" lon="5.12379">
        <ele>568.9</ele>
        <time>2022-02-27T14:54:09.569Z</time>
      </trkpt>
      <trkpt lat="44.90996" lon="5.12383">
        <ele>570.26</ele>
        <time>2022-02-27T14:54:18.677Z</time>
      </trkpt>
      <trkpt lat="44.91014" lon="5.12389">
        <ele>572.44</ele>
        <time>2022-02-27T14:59:07.133Z</time>
      </trkpt>
      <trkpt lat="44.91038" lon="5.12382">
        <ele>575.92</ele>
        <time>2022-02-27T14:59:27.533Z</time>
      </trkpt>
      <trkpt lat="44.9106" lon="5.12372">
        <ele>579.41</ele>
        <time>2022-02-27T15:00:23.456Z</time>
      </trkpt>
      <trkpt lat="44.91085" lon="5.12356">
        <ele>584.57</ele>
        <time>2022-02-27T15:00:42.335Z</time>
      </trkpt>
      <trkpt lat="44.91109" lon="5.12346">
        <ele>590.28</ele>
        <time>2022-02-27T15:01:01.010Z</time>
      </trkpt>
      <trkpt lat="44.91119" lon="5.12342">
        <ele>593.15</ele>
        <time>2022-02-27T15:01:10.350Z</time>
      </trkpt>
      <trkpt lat="44.9114" lon="5.12337">
        <ele>597.68</ele>
        <time>2022-02-27T15:01:33.520Z</time>
      </trkpt>
      <trkpt lat="44.91157" lon="5.12335">
        <ele>599.32</ele>
        <time>2022-02-27T15:01:57.893Z</time>
      </trkpt>
      <trkpt lat="44.91164" lon="5.12323">
        <ele>600.33</ele>
        <time>2022-02-27T15:02:07.254Z</time>
      </trkpt>
      <trkpt lat="44.9118" lon="5.12303">
        <ele>597.34</ele>
        <time>2022-02-27T15:02:25.932Z</time>
      </trkpt>
      <trkpt lat="44.91199" lon="5.12281">
        <ele>593.49</ele>
        <time>2022-02-27T15:02:44.711Z</time>
      </trkpt>
      <trkpt lat="44.91206" lon="5.1227">
        <ele>593.27</ele>
        <time>2022-02-27T15:02:54.449Z</time>
      </trkpt>
      <trkpt lat="44.9122" lon="5.1225">
        <ele>595.68</ele>
        <time>2022-02-27T15:03:13.566Z</time>
      </trkpt>
      <trkpt lat="44.91224" lon="5.12225">
        <ele>598.73</ele>
        <time>2022-02-27T15:03:33.455Z</time>
      </trkpt>
      <trkpt lat="44.91228" lon="5.12213">
        <ele>600.4</ele>
        <time>2022-02-27T15:03:45.433Z</time>
      </trkpt>
      <trkpt lat="44.91245" lon="5.12195">
        <ele>603.92</ele>
        <time>2022-02-27T15:04:04.736Z</time>
      </trkpt>
      <trkpt lat="44.91263" lon="5.12187">
        <ele>606.03</ele>
        <time>2022-02-27T15:04:28.658Z</time>
      </trkpt>
      <trkpt lat="44.91273" lon="5.12182">
        <ele>606.87</ele>
        <time>2022-02-27T15:04:38.518Z</time>
      </trkpt>
      <trkpt lat="44.91299" lon="5.12167">
        <ele>608.52</ele>
        <time>2022-02-27T15:04:57.443Z</time>
      </trkpt>
      <trkpt lat="44.91316" lon="5.12151">
        <ele>607.52</ele>
        <time>2022-02-27T15:05:29.849Z</time>
      </trkpt>
      <trkpt lat="44.91323" lon="5.12139">
        <ele>604.84</ele>
        <time>2022-02-27T15:05:39.651Z</time>
      </trkpt>
      <trkpt lat="44.91339" lon="5.12116">
        <ele>597.87</ele>
        <time>2022-02-27T15:06:07.477Z</time>
      </trkpt>
      <trkpt lat="44.9135" lon="5.12089">
        <ele>590.23</ele>
        <time>2022-02-27T15:06:26.694Z</time>
      </trkpt>
      <trkpt lat="44.91357" lon="5.12067">
        <ele>587.28</ele>
        <time>2022-02-27T15:06:36.092Z</time>
      </trkpt>
      <trkpt lat="44.91373" lon="5.12045">
        <ele>586.34</ele>
        <time>2022-02-27T15:06:58.318Z</time>
      </trkpt>
      <trkpt lat="44.91377" lon="5.12019">
        <ele>586.56</ele>
        <time>2022-02-27T15:07:20.855Z</time>
      </trkpt>
      <trkpt lat="44.91379" lon="5.12005">
        <ele>586.71</ele>
        <time>2022-02-27T15:07:30.152Z</time>
      </trkpt>
      <trkpt lat="44.91391" lon="5.11991">
        <ele>587.74</ele>
        <time>2022-02-27T15:08:01.467Z</time>
      </trkpt>
      <trkpt lat="44.91412" lon="5.12003">
        <ele>587.2</ele>
        <time>2022-02-27T15:08:20.320Z</time>
      </trkpt>
      <trkpt lat="44.91416" lon="5.12015">
        <ele>586.15</ele>
        <time>2022-02-27T15:08:33.118Z</time>
      </trkpt>
      <trkpt lat="44.91425" lon="5.12039">
        <ele>582.94</ele>
        <time>2022-02-27T15:08:59.432Z</time>
      </trkpt>
      <trkpt lat="44.91443" lon="5.12076">
        <ele>576.9</ele>
        <time>2022-02-27T15:09:51.597Z</time>
      </trkpt>
      <trkpt lat="44.91451" lon="5.12086">
        <ele>575.1</ele>
        <time>2022-02-27T15:10:00.754Z</time>
      </trkpt>
      <trkpt lat="44.91471" lon="5.12102">
        <ele>571.58</ele>
        <time>2022-02-27T15:10:22.632Z</time>
      </trkpt>
      <trkpt lat="44.91497" lon="5.12115">
        <ele>568.59</ele>
        <time>2022-02-27T15:10:41.409Z</time>
      </trkpt>
      <trkpt lat="44.9151" lon="5.12116">
        <ele>566.94</ele>
        <time>2022-02-27T15:10:51.799Z</time>
      </trkpt>
      <trkpt lat="44.91527" lon="5.121">
        <ele>562.04</ele>
        <time>2022-02-27T15:11:15.177Z</time>
      </trkpt>
      <trkpt lat="44.91554" lon="5.12057">
        <ele>551.47</ele>
        <time>2022-02-27T15:12:51.572Z</time>
      </trkpt>
      <trkpt lat="44.91561" lon="5.12047">
        <ele>548.81</ele>
        <time>2022-02-27T15:13:00.831Z</time>
      </trkpt>
      <trkpt lat="44.91573" lon="5.12025">
        <ele>543.96</ele>
        <time>2022-02-27T15:13:19.333Z</time>
      </trkpt>
      <trkpt lat="44.91596" lon="5.11988">
        <ele>539.54</ele>
        <time>2022-02-27T15:13:39.119Z</time>
      </trkpt>
      <trkpt lat="44.91603" lon="5.11973">
        <ele>539.21</ele>
        <time>2022-02-27T15:13:48.577Z</time>
      </trkpt>
      <trkpt lat="44.91615" lon="5.11938">
        <ele>537.32</ele>
        <time>2022-02-27T15:14:07.456Z</time>
      </trkpt>
      <trkpt lat="44.91616" lon="5.11902">
        <ele>532.48</ele>
        <time>2022-02-27T15:14:26.300Z</time>
      </trkpt>
      <trkpt lat="44.91619" lon="5.11887">
        <ele>529.98</ele>
        <time>2022-02-27T15:14:50.290Z</time>
      </trkpt>
      <trkpt lat="44.91628" lon="5.11851">
        <ele>522.99</ele>
        <time>2022-02-27T15:15:08.637Z</time>
      </trkpt>
      <trkpt lat="44.91639" lon="5.1183">
        <ele>518.44</ele>
        <time>2022-02-27T15:15:34.094Z</time>
      </trkpt>
      <trkpt lat="44.91645" lon="5.11819">
        <ele>515.77</ele>
        <time>2022-02-27T15:15:51.111Z</time>
      </trkpt>
      <trkpt lat="44.91662" lon="5.11796">
        <ele>508.45</ele>
        <time>2022-02-27T15:16:12.032Z</time>
      </trkpt>
      <trkpt lat="44.9168" lon="5.11779">
        <ele>503.45</ele>
        <time>2022-02-27T15:16:30.851Z</time>
      </trkpt>
      <trkpt lat="44.91687" lon="5.1177">
        <ele>501.86</ele>
        <time>2022-02-27T15:16:47.022Z</time>
      </trkpt>
      <trkpt lat="44.91698" lon="5.11749">
        <ele>499.34</ele>
        <time>2022-02-27T15:17:07.000Z</time>
      </trkpt>
      <trkpt lat="44.91716" lon="5.11737">
        <ele>499.24</ele>
        <time>2022-02-27T15:17:32.315Z</time>
      </trkpt>
      <trkpt lat="44.91723" lon="5.1173">
        <ele>498.51</ele>
        <time>2022-02-27T15:17:41.851Z</time>
      </trkpt>
      <trkpt lat="44.91743" lon="5.1171">
        <ele>494.47</ele>
        <time>2022-02-27T15:18:04.691Z</time>
      </trkpt>
      <trkpt lat="44.91759" lon="5.11697">
        <ele>491.13</ele>
        <time>2022-02-27T15:18:23.016Z</time>
      </trkpt>
      <trkpt lat="44.91767" lon="5.11688">
        <ele>489.38</ele>
        <time>2022-02-27T15:18:32.259Z</time>
      </trkpt>
      <trkpt lat="44.9178" lon="5.11666">
        <ele>485.94</ele>
        <time>2022-02-27T15:18:52.000Z</time>
      </trkpt>
      <trkpt lat="44.91789" lon="5.11642">
        <ele>482.88</ele>
        <time>2022-02-27T15:19:19.372Z</time>
      </trkpt>
      <trkpt lat="44.91792" lon="5.11631">
        <ele>480.99</ele>
        <time>2022-02-27T15:19:31.252Z</time>
      </trkpt>
      <trkpt lat="44.91803" lon="5.11608">
        <ele>476.42</ele>
        <time>2022-02-27T15:19:57.173Z</time>
      </trkpt>
      <trkpt lat="44.91822" lon="5.11583">
        <ele>471.02</ele>
        <time>2022-02-27T15:20:16.179Z</time>
      </trkpt>
      <trkpt lat="44.91829" lon="5.11573">
        <ele>470.89</ele>
        <time>2022-02-27T15:20:25.359Z</time>
      </trkpt>
      <trkpt lat="44.91843" lon="5.11556">
        <ele>474.31</ele>
        <time>2022-02-27T15:20:46.297Z</time>
      </trkpt>
      <trkpt lat="44.91855" lon="5.11524">
        <ele>481.9</ele>
        <time>2022-02-27T15:21:04.854Z</time>
      </trkpt>
      <trkpt lat="44.91861" lon="5.11511">
        <ele>483.98</ele>
        <time>2022-02-27T15:21:14.113Z</time>
      </trkpt>
      <trkpt lat="44.9187" lon="5.11485">
        <ele>483.11</ele>
        <time>2022-02-27T15:21:33.592Z</time>
      </trkpt>
      <trkpt lat="44.91884" lon="5.11458">
        <ele>474.15</ele>
        <time>2022-02-27T15:21:52.677Z</time>
      </trkpt>
      <trkpt lat="44.91888" lon="5.11445">
        <ele>469.3</ele>
        <time>2022-02-27T15:22:04.656Z</time>
      </trkpt>
      <trkpt lat="44.919" lon="5.11417">
        <ele>459.28</ele>
        <time>2022-02-27T15:22:23.173Z</time>
      </trkpt>
      <trkpt lat="44.91908" lon="5.11383">
        <ele>462.58</ele>
        <time>2022-02-27T15:22:41.454Z</time>
      </trkpt>
      <trkpt lat="44.91915" lon="5.11371">
        <ele>464.72</ele>
        <time>2022-02-27T15:22:50.737Z</time>
      </trkpt>
      <trkpt lat="44.91931" lon="5.11363">
        <ele>462.59</ele>
        <time>2022-02-27T15:23:11.869Z</time>
      </trkpt>
      <trkpt lat="44.9195" lon="5.11355">
        <ele>459.82</ele>
        <time>2022-02-27T15:23:31.778Z</time>
      </trkpt>
      <trkpt lat="44.9196" lon="5.11349">
        <ele>458.36</ele>
        <time>2022-02-27T15:23:40.996Z</time>
      </trkpt>
      <trkpt lat="44.91991" lon="5.1134">
        <ele>450.83</ele>
        <time>2022-02-27T15:24:42.169Z</time>
      </trkpt>
      <trkpt lat="44.92037" lon="5.11346">
        <ele>442.32</ele>
        <time>2022-02-27T15:25:00.550Z</time>
      </trkpt>
      <trkpt lat="44.9205" lon="5.11347">
        <ele>440.87</ele>
        <time>2022-02-27T15:25:10.443Z</time>
      </trkpt>
      <trkpt lat="44.92079" lon="5.11344">
        <ele>437.37</ele>
        <time>2022-02-27T15:25:42.673Z</time>
      </trkpt>
      <trkpt lat="44.92108" lon="5.11343">
        <ele>434.44</ele>
        <time>2022-02-27T15:26:01.492Z</time>
      </trkpt>
      <trkpt lat="44.92122" lon="5.11337">
        <ele>432.23</ele>
        <time>2022-02-27T15:26:10.708Z</time>
      </trkpt>
      <trkpt lat="44.92142" lon="5.11316">
        <ele>426.4</ele>
        <time>2022-02-27T15:26:30.219Z</time>
      </trkpt>
      <trkpt lat="44.9216" lon="5.11293">
        <ele>420.97</ele>
        <time>2022-02-27T15:26:49.536Z</time>
      </trkpt>
      <trkpt lat="44.92159" lon="5.11271">
        <ele>420.09</ele>
        <time>2022-02-27T15:26:58.716Z</time>
      </trkpt>
      <trkpt lat="44.92156" lon="5.11245">
        <ele>419.36</ele>
        <time>2022-02-27T15:27:17.012Z</time>
      </trkpt>
      <trkpt lat="44.92153" lon="5.11216">
        <ele>418.18</ele>
        <time>2022-02-27T15:27:35.432Z</time>
      </trkpt>
      <trkpt lat="44.92153" lon="5.112">
        <ele>417.41</ele>
        <time>2022-02-27T15:27:44.770Z</time>
      </trkpt>
      <trkpt lat="44.92139" lon="5.11187">
        <ele>418.65</ele>
        <time>2022-02-27T15:29:31.273Z</time>
      </trkpt>
      <trkpt lat="44.92117" lon="5.11176">
        <ele>420.5</ele>
        <time>2022-02-27T15:29:49.718Z</time>
      </trkpt>
      <trkpt lat="44.92109" lon="5.11173">
        <ele>421.15</ele>
        <time>2022-02-27T15:30:02.792Z</time>
      </trkpt>
      <trkpt lat="44.92083" lon="5.11163">
        <ele>423.36</ele>
        <time>2022-02-27T15:30:20.839Z</time>
      </trkpt>
      <trkpt lat="44.92066" lon="5.11147">
        <ele>423.52</ele>
        <time>2022-02-27T15:30:39.509Z</time>
      </trkpt>
      <trkpt lat="44.92056" lon="5.11137">
        <ele>423.41</ele>
        <time>2022-02-27T15:30:48.529Z</time>
      </trkpt>
      <trkpt lat="44.92039" lon="5.11121">
        <ele>423.53</ele>
        <time>2022-02-27T15:31:07.297Z</time>
      </trkpt>
      <trkpt lat="44.92019" lon="5.11109">
        <ele>424.58</ele>
        <time>2022-02-27T15:31:26.235Z</time>
      </trkpt>
      <trkpt lat="44.92008" lon="5.111">
        <ele>424.04</ele>
        <time>2022-02-27T15:31:35.413Z</time>
      </trkpt>
      <trkpt lat="44.91987" lon="5.11092">
        <ele>424.46</ele>
        <time>2022-02-27T15:31:53.573Z</time>
      </trkpt>
      <trkpt lat="44.91968" lon="5.11086">
        <ele>424.46</ele>
        <time>2022-02-27T15:32:12.536Z</time>
      </trkpt>
      <trkpt lat="44.91956" lon="5.11084">
        <ele>425.06</ele>
        <time>2022-02-27T15:32:21.839Z</time>
      </trkpt>
      <trkpt lat="44.91934" lon="5.11082">
        <ele>426.14</ele>
        <time>2022-02-27T15:32:42.591Z</time>
      </trkpt>
      <trkpt lat="44.91908" lon="5.1108">
        <ele>428.15</ele>
        <time>2022-02-27T15:33:02.120Z</time>
      </trkpt>
      <trkpt lat="44.91898" lon="5.1108">
        <ele>429.18</ele>
        <time>2022-02-27T15:33:11.336Z</time>
      </trkpt>
      <trkpt lat="44.91874" lon="5.11074">
        <ele>430.36</ele>
        <time>2022-02-27T15:33:30.097Z</time>
      </trkpt>
      <trkpt lat="44.91856" lon="5.11069">
        <ele>431.29</ele>
        <time>2022-02-27T15:33:49.374Z</time>
      </trkpt>
      <trkpt lat="44.91843" lon="5.11064">
        <ele>431.31</ele>
        <time>2022-02-27T15:33:59.433Z</time>
      </trkpt>
      <trkpt lat="44.91822" lon="5.11053">
        <ele>430.04</ele>
        <time>2022-02-27T15:34:18.191Z</time>
      </trkpt>
      <trkpt lat="44.9183" lon="5.11019">
        <ele>421.96</ele>
        <time>2022-02-27T15:34:45.395Z</time>
      </trkpt>
      <trkpt lat="44.91831" lon="5.11">
        <ele>418.14</ele>
        <time>2022-02-27T15:34:54.396Z</time>
      </trkpt>
      <trkpt lat="44.91834" lon="5.10968">
        <ele>412.73</ele>
        <time>2022-02-27T15:35:12.951Z</time>
      </trkpt>
      <trkpt lat="44.9184" lon="5.1094">
        <ele>408.74</ele>
        <time>2022-02-27T15:35:31.766Z</time>
      </trkpt>
      <trkpt lat="44.91845" lon="5.10929">
        <ele>407.28</ele>
        <time>2022-02-27T15:35:44.159Z</time>
      </trkpt>
      <trkpt lat="44.91848" lon="5.109">
        <ele>403.79</ele>
        <time>2022-02-27T15:36:03.395Z</time>
      </trkpt>
      <trkpt lat="44.91852" lon="5.10871">
        <ele>400.86</ele>
        <time>2022-02-27T15:36:23.734Z</time>
      </trkpt>
      <trkpt lat="44.91857" lon="5.1086">
        <ele>399.89</ele>
        <time>2022-02-27T15:36:34.513Z</time>
      </trkpt>
      <trkpt lat="44.9186" lon="5.10832">
        <ele>397.5</ele>
        <time>2022-02-27T15:36:53.000Z</time>
      </trkpt>
      <trkpt lat="44.91871" lon="5.10806">
        <ele>395.63</ele>
        <time>2022-02-27T15:37:13.027Z</time>
      </trkpt>
      <trkpt lat="44.91876" lon="5.10793">
        <ele>394.84</ele>
        <time>2022-02-27T15:37:22.857Z</time>
      </trkpt>
      <trkpt lat="44.91885" lon="5.10764">
        <ele>393.45</ele>
        <time>2022-02-27T15:37:41.973Z</time>
      </trkpt>
      <trkpt lat="44.91887" lon="5.10734">
        <ele>392.12</ele>
        <time>2022-02-27T15:38:03.253Z</time>
      </trkpt>
      <trkpt lat="44.91885" lon="5.10718">
        <ele>391.5</ele>
        <time>2022-02-27T15:38:12.651Z</time>
      </trkpt>
      <trkpt lat="44.91879" lon="5.10689">
        <ele>390.32</ele>
        <time>2022-02-27T15:38:31.589Z</time>
      </trkpt>
      <trkpt lat="44.91883" lon="5.10675">
        <ele>390.09</ele>
        <time>2022-02-27T15:39:21.174Z</time>
      </trkpt>
      <trkpt lat="44.91892" lon="5.10678">
        <ele>390.65</ele>
        <time>2022-02-27T15:39:32.392Z</time>
      </trkpt>
      <trkpt lat="44.91902" lon="5.10652">
        <ele>389.83</ele>
        <time>2022-02-27T15:39:53.410Z</time>
      </trkpt>
      <trkpt lat="44.91918" lon="5.10664">
        <ele>390.88</ele>
        <time>2022-02-27T15:40:25.320Z</time>
      </trkpt>
      <trkpt lat="44.91932" lon="5.10673">
        <ele>391.44</ele>
        <time>2022-02-27T15:40:34.515Z</time>
      </trkpt>
      <trkpt lat="44.91944" lon="5.10685">
        <ele>391.88</ele>
        <time>2022-02-27T15:41:56.999Z</time>
      </trkpt>
    </trkseg>
  </trk>
</gpx>